<?xml version="1.0" encoding="UTF-8" standalone="no" ?>
<gpx xmlns="http://www.topografix.com/GPX/1/1" xmlns:xsi="http://www.w3.org/2001/XMLSchema-instance" xsi:schemaLocation="http://www.topografix.com/GPX/1/1 http://www.topografix.com/GPX/1/1/gpx.xsd" version="1.1" creator="VisuGPX - https://www.visugpx.com">
  <metadata>
    <name>Chuyer le Pilon</name>
  </metadata>
  <trk>
    <name><![CDATA[Chuyer le Pilon_1]]></name>
    <trkseg>
      <trkpt lat="45.46309" lon="4.71525">
        <ele>461.4</ele>
        <time>2021-05-08T12:52:36Z</time>
      </trkpt>
      <trkpt lat="45.46309" lon="4.71525">
        <ele>460.8</ele>
        <time>2021-05-08T12:52:41Z</time>
      </trkpt>
      <trkpt lat="45.46309" lon="4.71525">
        <ele>460.6</ele>
        <time>2021-05-08T12:52:46Z</time>
      </trkpt>
      <trkpt lat="45.4631" lon="4.71526">
        <ele>460.5</ele>
        <time>2021-05-08T12:52:51Z</time>
      </trkpt>
      <trkpt lat="45.46311" lon="4.71526">
        <ele>460.7</ele>
        <time>2021-05-08T12:52:57Z</time>
      </trkpt>
      <trkpt lat="45.46312" lon="4.7151">
        <ele>460.5</ele>
        <time>2021-05-08T12:53:02Z</time>
      </trkpt>
      <trkpt lat="45.46311" lon="4.7149">
        <ele>461.8</ele>
        <time>2021-05-08T12:53:07Z</time>
      </trkpt>
      <trkpt lat="45.46308" lon="4.7147">
        <ele>462.2</ele>
        <time>2021-05-08T12:53:13Z</time>
      </trkpt>
      <trkpt lat="45.46305" lon="4.71454">
        <ele>463.4</ele>
        <time>2021-05-08T12:53:18Z</time>
      </trkpt>
      <trkpt lat="45.46301" lon="4.71438">
        <ele>463.5</ele>
        <time>2021-05-08T12:53:23Z</time>
      </trkpt>
      <trkpt lat="45.46299" lon="4.71418">
        <ele>463.6</ele>
        <time>2021-05-08T12:53:29Z</time>
      </trkpt>
      <trkpt lat="45.46298" lon="4.71401">
        <ele>464.9</ele>
        <time>2021-05-08T12:53:34Z</time>
      </trkpt>
      <trkpt lat="45.46297" lon="4.71382">
        <ele>466.4</ele>
        <time>2021-05-08T12:53:39Z</time>
      </trkpt>
      <trkpt lat="45.46297" lon="4.71357">
        <ele>466.4</ele>
        <time>2021-05-08T12:53:45Z</time>
      </trkpt>
      <trkpt lat="45.46297" lon="4.71334">
        <ele>466.2</ele>
        <time>2021-05-08T12:53:50Z</time>
      </trkpt>
      <trkpt lat="45.46297" lon="4.71309">
        <ele>466.5</ele>
        <time>2021-05-08T12:53:56Z</time>
      </trkpt>
      <trkpt lat="45.46298" lon="4.7129">
        <ele>468</ele>
        <time>2021-05-08T12:54:01Z</time>
      </trkpt>
      <trkpt lat="45.46298" lon="4.7127">
        <ele>468</ele>
        <time>2021-05-08T12:54:06Z</time>
      </trkpt>
      <trkpt lat="45.46299" lon="4.71251">
        <ele>467.3</ele>
        <time>2021-05-08T12:54:11Z</time>
      </trkpt>
      <trkpt lat="45.463" lon="4.71229">
        <ele>467.4</ele>
        <time>2021-05-08T12:54:16Z</time>
      </trkpt>
      <trkpt lat="45.463" lon="4.71206">
        <ele>467.6</ele>
        <time>2021-05-08T12:54:22Z</time>
      </trkpt>
      <trkpt lat="45.463" lon="4.71186">
        <ele>468.3</ele>
        <time>2021-05-08T12:54:27Z</time>
      </trkpt>
      <trkpt lat="45.46301" lon="4.71164">
        <ele>468.6</ele>
        <time>2021-05-08T12:54:33Z</time>
      </trkpt>
      <trkpt lat="45.46302" lon="4.71143">
        <ele>471.2</ele>
        <time>2021-05-08T12:54:38Z</time>
      </trkpt>
      <trkpt lat="45.46303" lon="4.71126">
        <ele>471</ele>
        <time>2021-05-08T12:54:43Z</time>
      </trkpt>
      <trkpt lat="45.46307" lon="4.71109">
        <ele>472.5</ele>
        <time>2021-05-08T12:54:48Z</time>
      </trkpt>
      <trkpt lat="45.46314" lon="4.71096">
        <ele>473</ele>
        <time>2021-05-08T12:54:53Z</time>
      </trkpt>
      <trkpt lat="45.4632" lon="4.71112">
        <ele>473.8</ele>
        <time>2021-05-08T12:54:59Z</time>
      </trkpt>
      <trkpt lat="45.46324" lon="4.71129">
        <ele>475</ele>
        <time>2021-05-08T12:55:05Z</time>
      </trkpt>
      <trkpt lat="45.46327" lon="4.71143">
        <ele>476.1</ele>
        <time>2021-05-08T12:55:10Z</time>
      </trkpt>
      <trkpt lat="45.46333" lon="4.71157">
        <ele>475.7</ele>
        <time>2021-05-08T12:55:16Z</time>
      </trkpt>
      <trkpt lat="45.46339" lon="4.71168">
        <ele>477.3</ele>
        <time>2021-05-08T12:55:21Z</time>
      </trkpt>
      <trkpt lat="45.46345" lon="4.71179">
        <ele>477.7</ele>
        <time>2021-05-08T12:55:26Z</time>
      </trkpt>
      <trkpt lat="45.46354" lon="4.71192">
        <ele>478.5</ele>
        <time>2021-05-08T12:55:32Z</time>
      </trkpt>
      <trkpt lat="45.46361" lon="4.71201">
        <ele>478.8</ele>
        <time>2021-05-08T12:55:38Z</time>
      </trkpt>
      <trkpt lat="45.46367" lon="4.71208">
        <ele>482.5</ele>
        <time>2021-05-08T12:55:43Z</time>
      </trkpt>
      <trkpt lat="45.46374" lon="4.71216">
        <ele>482</ele>
        <time>2021-05-08T12:55:49Z</time>
      </trkpt>
      <trkpt lat="45.46381" lon="4.71227">
        <ele>481.9</ele>
        <time>2021-05-08T12:55:54Z</time>
      </trkpt>
      <trkpt lat="45.46388" lon="4.71236">
        <ele>482.7</ele>
        <time>2021-05-08T12:56:00Z</time>
      </trkpt>
      <trkpt lat="45.46395" lon="4.71244">
        <ele>484.4</ele>
        <time>2021-05-08T12:56:05Z</time>
      </trkpt>
      <trkpt lat="45.46401" lon="4.71252">
        <ele>484.1</ele>
        <time>2021-05-08T12:56:11Z</time>
      </trkpt>
      <trkpt lat="45.4641" lon="4.71262">
        <ele>485.3</ele>
        <time>2021-05-08T12:56:16Z</time>
      </trkpt>
      <trkpt lat="45.46418" lon="4.71269">
        <ele>485.9</ele>
        <time>2021-05-08T12:56:21Z</time>
      </trkpt>
      <trkpt lat="45.46427" lon="4.71277">
        <ele>486.1</ele>
        <time>2021-05-08T12:56:26Z</time>
      </trkpt>
      <trkpt lat="45.46433" lon="4.71284">
        <ele>488.6</ele>
        <time>2021-05-08T12:56:32Z</time>
      </trkpt>
      <trkpt lat="45.46441" lon="4.7129">
        <ele>489.8</ele>
        <time>2021-05-08T12:56:37Z</time>
      </trkpt>
      <trkpt lat="45.46449" lon="4.71295">
        <ele>488.7</ele>
        <time>2021-05-08T12:56:43Z</time>
      </trkpt>
      <trkpt lat="45.46458" lon="4.71303">
        <ele>488.3</ele>
        <time>2021-05-08T12:56:48Z</time>
      </trkpt>
      <trkpt lat="45.46468" lon="4.71316">
        <ele>490.7</ele>
        <time>2021-05-08T12:56:54Z</time>
      </trkpt>
      <trkpt lat="45.46472" lon="4.71335">
        <ele>491.1</ele>
        <time>2021-05-08T12:57:00Z</time>
      </trkpt>
      <trkpt lat="45.46477" lon="4.71368">
        <ele>490.3</ele>
        <time>2021-05-08T12:57:05Z</time>
      </trkpt>
      <trkpt lat="45.46483" lon="4.71388">
        <ele>491.4</ele>
        <time>2021-05-08T12:57:10Z</time>
      </trkpt>
      <trkpt lat="45.4649" lon="4.71405">
        <ele>491.7</ele>
        <time>2021-05-08T12:57:15Z</time>
      </trkpt>
      <trkpt lat="45.46494" lon="4.71411">
        <ele>494.7</ele>
        <time>2021-05-08T12:57:21Z</time>
      </trkpt>
      <trkpt lat="45.46498" lon="4.71419">
        <ele>498.8</ele>
        <time>2021-05-08T12:57:26Z</time>
      </trkpt>
      <trkpt lat="45.46503" lon="4.71428">
        <ele>498.7</ele>
        <time>2021-05-08T12:57:31Z</time>
      </trkpt>
      <trkpt lat="45.46509" lon="4.71438">
        <ele>498.5</ele>
        <time>2021-05-08T12:57:36Z</time>
      </trkpt>
      <trkpt lat="45.46515" lon="4.7145">
        <ele>497.6</ele>
        <time>2021-05-08T12:57:42Z</time>
      </trkpt>
      <trkpt lat="45.46522" lon="4.71464">
        <ele>499.1</ele>
        <time>2021-05-08T12:57:47Z</time>
      </trkpt>
      <trkpt lat="45.46528" lon="4.71471">
        <ele>499.7</ele>
        <time>2021-05-08T12:57:52Z</time>
      </trkpt>
      <trkpt lat="45.46537" lon="4.71466">
        <ele>500</ele>
        <time>2021-05-08T12:57:58Z</time>
      </trkpt>
      <trkpt lat="45.46543" lon="4.71455">
        <ele>498.2</ele>
        <time>2021-05-08T12:58:04Z</time>
      </trkpt>
      <trkpt lat="45.46546" lon="4.71448">
        <ele>495.9</ele>
        <time>2021-05-08T12:58:09Z</time>
      </trkpt>
      <trkpt lat="45.46551" lon="4.71439">
        <ele>497</ele>
        <time>2021-05-08T12:58:15Z</time>
      </trkpt>
      <trkpt lat="45.46556" lon="4.7143">
        <ele>499.8</ele>
        <time>2021-05-08T12:58:20Z</time>
      </trkpt>
      <trkpt lat="45.46562" lon="4.71418">
        <ele>500.9</ele>
        <time>2021-05-08T12:58:25Z</time>
      </trkpt>
      <trkpt lat="45.46567" lon="4.71411">
        <ele>503</ele>
        <time>2021-05-08T12:58:31Z</time>
      </trkpt>
      <trkpt lat="45.46573" lon="4.714">
        <ele>505.4</ele>
        <time>2021-05-08T12:58:36Z</time>
      </trkpt>
      <trkpt lat="45.46579" lon="4.71393">
        <ele>507</ele>
        <time>2021-05-08T12:58:42Z</time>
      </trkpt>
      <trkpt lat="45.46583" lon="4.71381">
        <ele>505.6</ele>
        <time>2021-05-08T12:58:47Z</time>
      </trkpt>
      <trkpt lat="45.4659" lon="4.71374">
        <ele>503.3</ele>
        <time>2021-05-08T12:58:52Z</time>
      </trkpt>
      <trkpt lat="45.466" lon="4.71369">
        <ele>503.4</ele>
        <time>2021-05-08T12:58:58Z</time>
      </trkpt>
      <trkpt lat="45.46608" lon="4.71361">
        <ele>503.4</ele>
        <time>2021-05-08T12:59:03Z</time>
      </trkpt>
      <trkpt lat="45.46614" lon="4.71352">
        <ele>503.9</ele>
        <time>2021-05-08T12:59:08Z</time>
      </trkpt>
      <trkpt lat="45.46618" lon="4.71341">
        <ele>502.1</ele>
        <time>2021-05-08T12:59:13Z</time>
      </trkpt>
      <trkpt lat="45.46626" lon="4.71328">
        <ele>503</ele>
        <time>2021-05-08T12:59:19Z</time>
      </trkpt>
      <trkpt lat="45.46631" lon="4.7132">
        <ele>504.7</ele>
        <time>2021-05-08T12:59:24Z</time>
      </trkpt>
      <trkpt lat="45.46634" lon="4.71309">
        <ele>507.2</ele>
        <time>2021-05-08T12:59:29Z</time>
      </trkpt>
      <trkpt lat="45.46636" lon="4.71297">
        <ele>508.2</ele>
        <time>2021-05-08T12:59:34Z</time>
      </trkpt>
      <trkpt lat="45.46634" lon="4.71283">
        <ele>507.8</ele>
        <time>2021-05-08T12:59:40Z</time>
      </trkpt>
      <trkpt lat="45.46632" lon="4.71271">
        <ele>509.7</ele>
        <time>2021-05-08T12:59:45Z</time>
      </trkpt>
      <trkpt lat="45.46629" lon="4.7126">
        <ele>512.4</ele>
        <time>2021-05-08T12:59:51Z</time>
      </trkpt>
      <trkpt lat="45.46627" lon="4.71249">
        <ele>513.1</ele>
        <time>2021-05-08T12:59:56Z</time>
      </trkpt>
      <trkpt lat="45.46626" lon="4.71237">
        <ele>514.8</ele>
        <time>2021-05-08T13:00:01Z</time>
      </trkpt>
      <trkpt lat="45.46626" lon="4.71223">
        <ele>516.1</ele>
        <time>2021-05-08T13:00:07Z</time>
      </trkpt>
      <trkpt lat="45.46626" lon="4.7121">
        <ele>516.4</ele>
        <time>2021-05-08T13:00:12Z</time>
      </trkpt>
      <trkpt lat="45.46631" lon="4.71192">
        <ele>512.7</ele>
        <time>2021-05-08T13:00:17Z</time>
      </trkpt>
      <trkpt lat="45.46635" lon="4.71164">
        <ele>515.4</ele>
        <time>2021-05-08T13:00:23Z</time>
      </trkpt>
      <trkpt lat="45.4664" lon="4.71129">
        <ele>513.1</ele>
        <time>2021-05-08T13:00:29Z</time>
      </trkpt>
      <trkpt lat="45.46646" lon="4.71097">
        <ele>511.2</ele>
        <time>2021-05-08T13:00:34Z</time>
      </trkpt>
      <trkpt lat="45.46651" lon="4.71076">
        <ele>510.7</ele>
        <time>2021-05-08T13:00:39Z</time>
      </trkpt>
      <trkpt lat="45.46653" lon="4.71049">
        <ele>511.3</ele>
        <time>2021-05-08T13:00:45Z</time>
      </trkpt>
      <trkpt lat="45.46653" lon="4.71031">
        <ele>512.9</ele>
        <time>2021-05-08T13:00:50Z</time>
      </trkpt>
      <trkpt lat="45.46653" lon="4.71014">
        <ele>514.5</ele>
        <time>2021-05-08T13:00:55Z</time>
      </trkpt>
      <trkpt lat="45.46652" lon="4.71">
        <ele>514.9</ele>
        <time>2021-05-08T13:01:00Z</time>
      </trkpt>
      <trkpt lat="45.46653" lon="4.70987">
        <ele>515.5</ele>
        <time>2021-05-08T13:01:06Z</time>
      </trkpt>
      <trkpt lat="45.46655" lon="4.70976">
        <ele>518.3</ele>
        <time>2021-05-08T13:01:11Z</time>
      </trkpt>
      <trkpt lat="45.46656" lon="4.70963">
        <ele>518.9</ele>
        <time>2021-05-08T13:01:16Z</time>
      </trkpt>
      <trkpt lat="45.46662" lon="4.7096">
        <ele>519</ele>
        <time>2021-05-08T13:01:21Z</time>
      </trkpt>
      <trkpt lat="45.46681" lon="4.7098">
        <ele>519.4</ele>
        <time>2021-05-08T13:01:27Z</time>
      </trkpt>
      <trkpt lat="45.46701" lon="4.70992">
        <ele>519.8</ele>
        <time>2021-05-08T13:01:32Z</time>
      </trkpt>
      <trkpt lat="45.46711" lon="4.70994">
        <ele>522</ele>
        <time>2021-05-08T13:01:37Z</time>
      </trkpt>
      <trkpt lat="45.46721" lon="4.70992">
        <ele>523.3</ele>
        <time>2021-05-08T13:01:43Z</time>
      </trkpt>
      <trkpt lat="45.46731" lon="4.70993">
        <ele>529.3</ele>
        <time>2021-05-08T13:01:48Z</time>
      </trkpt>
      <trkpt lat="45.46739" lon="4.70999">
        <ele>528.2</ele>
        <time>2021-05-08T13:01:53Z</time>
      </trkpt>
      <trkpt lat="45.46751" lon="4.71009">
        <ele>527.6</ele>
        <time>2021-05-08T13:01:58Z</time>
      </trkpt>
      <trkpt lat="45.46763" lon="4.71017">
        <ele>523.8</ele>
        <time>2021-05-08T13:02:04Z</time>
      </trkpt>
      <trkpt lat="45.46774" lon="4.71021">
        <ele>519.6</ele>
        <time>2021-05-08T13:02:09Z</time>
      </trkpt>
      <trkpt lat="45.46785" lon="4.71018">
        <ele>519.1</ele>
        <time>2021-05-08T13:02:14Z</time>
      </trkpt>
      <trkpt lat="45.46795" lon="4.71015">
        <ele>519.9</ele>
        <time>2021-05-08T13:02:19Z</time>
      </trkpt>
      <trkpt lat="45.46805" lon="4.71008">
        <ele>521.6</ele>
        <time>2021-05-08T13:02:24Z</time>
      </trkpt>
      <trkpt lat="45.46813" lon="4.71">
        <ele>526.5</ele>
        <time>2021-05-08T13:02:29Z</time>
      </trkpt>
      <trkpt lat="45.4682" lon="4.70989">
        <ele>526.8</ele>
        <time>2021-05-08T13:02:35Z</time>
      </trkpt>
      <trkpt lat="45.46826" lon="4.70978">
        <ele>529.6</ele>
        <time>2021-05-08T13:02:40Z</time>
      </trkpt>
      <trkpt lat="45.46828" lon="4.70964">
        <ele>530</ele>
        <time>2021-05-08T13:02:45Z</time>
      </trkpt>
      <trkpt lat="45.46828" lon="4.70953">
        <ele>531.8</ele>
        <time>2021-05-08T13:02:50Z</time>
      </trkpt>
      <trkpt lat="45.46829" lon="4.7094">
        <ele>532.5</ele>
        <time>2021-05-08T13:02:56Z</time>
      </trkpt>
      <trkpt lat="45.46829" lon="4.70932">
        <ele>533.3</ele>
        <time>2021-05-08T13:03:01Z</time>
      </trkpt>
      <trkpt lat="45.46827" lon="4.70921">
        <ele>532.3</ele>
        <time>2021-05-08T13:03:07Z</time>
      </trkpt>
      <trkpt lat="45.46823" lon="4.7091">
        <ele>533.5</ele>
        <time>2021-05-08T13:03:12Z</time>
      </trkpt>
      <trkpt lat="45.46822" lon="4.70901">
        <ele>535.8</ele>
        <time>2021-05-08T13:03:17Z</time>
      </trkpt>
      <trkpt lat="45.46823" lon="4.70891">
        <ele>538.7</ele>
        <time>2021-05-08T13:03:23Z</time>
      </trkpt>
      <trkpt lat="45.46824" lon="4.70886">
        <ele>540.8</ele>
        <time>2021-05-08T13:03:28Z</time>
      </trkpt>
      <trkpt lat="45.46825" lon="4.70888">
        <ele>541.7</ele>
        <time>2021-05-08T13:03:33Z</time>
      </trkpt>
      <trkpt lat="45.46825" lon="4.70889">
        <ele>542</ele>
        <time>2021-05-08T13:03:38Z</time>
      </trkpt>
      <trkpt lat="45.46824" lon="4.70887">
        <ele>542.6</ele>
        <time>2021-05-08T13:03:44Z</time>
      </trkpt>
      <trkpt lat="45.46823" lon="4.70878">
        <ele>542.8</ele>
        <time>2021-05-08T13:03:49Z</time>
      </trkpt>
      <trkpt lat="45.46823" lon="4.70869">
        <ele>544.3</ele>
        <time>2021-05-08T13:03:54Z</time>
      </trkpt>
      <trkpt lat="45.46822" lon="4.70858">
        <ele>545.6</ele>
        <time>2021-05-08T13:04:00Z</time>
      </trkpt>
      <trkpt lat="45.46818" lon="4.7085">
        <ele>546.8</ele>
        <time>2021-05-08T13:04:06Z</time>
      </trkpt>
      <trkpt lat="45.46816" lon="4.70842">
        <ele>547.3</ele>
        <time>2021-05-08T13:04:11Z</time>
      </trkpt>
      <trkpt lat="45.46819" lon="4.70831">
        <ele>545.8</ele>
        <time>2021-05-08T13:04:17Z</time>
      </trkpt>
      <trkpt lat="45.46819" lon="4.70822">
        <ele>547.2</ele>
        <time>2021-05-08T13:04:23Z</time>
      </trkpt>
      <trkpt lat="45.46815" lon="4.70814">
        <ele>548</ele>
        <time>2021-05-08T13:04:28Z</time>
      </trkpt>
      <trkpt lat="45.46809" lon="4.70808">
        <ele>548.8</ele>
        <time>2021-05-08T13:04:33Z</time>
      </trkpt>
      <trkpt lat="45.46805" lon="4.70798">
        <ele>518.9</ele>
        <time>2021-05-08T13:04:39Z</time>
      </trkpt>
      <trkpt lat="45.46804" lon="4.70789">
        <ele>541.6</ele>
        <time>2021-05-08T13:04:44Z</time>
      </trkpt>
      <trkpt lat="45.46805" lon="4.70778">
        <ele>547.5</ele>
        <time>2021-05-08T13:04:49Z</time>
      </trkpt>
      <trkpt lat="45.46805" lon="4.70771">
        <ele>553.2</ele>
        <time>2021-05-08T13:04:54Z</time>
      </trkpt>
      <trkpt lat="45.46805" lon="4.7076">
        <ele>554.1</ele>
        <time>2021-05-08T13:05:00Z</time>
      </trkpt>
      <trkpt lat="45.46805" lon="4.70751">
        <ele>554.4</ele>
        <time>2021-05-08T13:05:05Z</time>
      </trkpt>
      <trkpt lat="45.46803" lon="4.70744">
        <ele>554.7</ele>
        <time>2021-05-08T13:05:10Z</time>
      </trkpt>
      <trkpt lat="45.46801" lon="4.70735">
        <ele>555.8</ele>
        <time>2021-05-08T13:05:15Z</time>
      </trkpt>
      <trkpt lat="45.46803" lon="4.70726">
        <ele>558.9</ele>
        <time>2021-05-08T13:05:21Z</time>
      </trkpt>
      <trkpt lat="45.46806" lon="4.70717">
        <ele>558.3</ele>
        <time>2021-05-08T13:05:26Z</time>
      </trkpt>
      <trkpt lat="45.46809" lon="4.70707">
        <ele>558.6</ele>
        <time>2021-05-08T13:05:32Z</time>
      </trkpt>
      <trkpt lat="45.46812" lon="4.707">
        <ele>560.1</ele>
        <time>2021-05-08T13:05:37Z</time>
      </trkpt>
      <trkpt lat="45.46815" lon="4.70694">
        <ele>559.7</ele>
        <time>2021-05-08T13:05:42Z</time>
      </trkpt>
      <trkpt lat="45.46818" lon="4.70684">
        <ele>558.9</ele>
        <time>2021-05-08T13:05:48Z</time>
      </trkpt>
      <trkpt lat="45.46822" lon="4.70674">
        <ele>557.1</ele>
        <time>2021-05-08T13:05:54Z</time>
      </trkpt>
      <trkpt lat="45.46825" lon="4.70666">
        <ele>558</ele>
        <time>2021-05-08T13:05:59Z</time>
      </trkpt>
      <trkpt lat="45.46829" lon="4.7066">
        <ele>558.1</ele>
        <time>2021-05-08T13:06:05Z</time>
      </trkpt>
      <trkpt lat="45.46831" lon="4.70652">
        <ele>559.9</ele>
        <time>2021-05-08T13:06:10Z</time>
      </trkpt>
      <trkpt lat="45.46833" lon="4.70646">
        <ele>560.3</ele>
        <time>2021-05-08T13:06:15Z</time>
      </trkpt>
      <trkpt lat="45.46836" lon="4.70639">
        <ele>561.6</ele>
        <time>2021-05-08T13:06:20Z</time>
      </trkpt>
      <trkpt lat="45.4684" lon="4.70633">
        <ele>563.2</ele>
        <time>2021-05-08T13:06:25Z</time>
      </trkpt>
      <trkpt lat="45.46845" lon="4.70626">
        <ele>566</ele>
        <time>2021-05-08T13:06:30Z</time>
      </trkpt>
      <trkpt lat="45.46848" lon="4.70618">
        <ele>566</ele>
        <time>2021-05-08T13:06:36Z</time>
      </trkpt>
      <trkpt lat="45.46854" lon="4.70609">
        <ele>565.4</ele>
        <time>2021-05-08T13:06:41Z</time>
      </trkpt>
      <trkpt lat="45.46857" lon="4.70601">
        <ele>564</ele>
        <time>2021-05-08T13:06:46Z</time>
      </trkpt>
      <trkpt lat="45.46859" lon="4.70592">
        <ele>566.5</ele>
        <time>2021-05-08T13:06:52Z</time>
      </trkpt>
      <trkpt lat="45.46864" lon="4.70584">
        <ele>571.4</ele>
        <time>2021-05-08T13:06:57Z</time>
      </trkpt>
      <trkpt lat="45.46866" lon="4.70579">
        <ele>575.3</ele>
        <time>2021-05-08T13:07:02Z</time>
      </trkpt>
      <trkpt lat="45.46866" lon="4.70569">
        <ele>575</ele>
        <time>2021-05-08T13:07:08Z</time>
      </trkpt>
      <trkpt lat="45.46865" lon="4.70559">
        <ele>575.3</ele>
        <time>2021-05-08T13:07:14Z</time>
      </trkpt>
      <trkpt lat="45.46863" lon="4.70559">
        <ele>575.1</ele>
        <time>2021-05-08T13:07:19Z</time>
      </trkpt>
      <trkpt lat="45.46862" lon="4.70559">
        <ele>573.4</ele>
        <time>2021-05-08T13:07:24Z</time>
      </trkpt>
      <trkpt lat="45.46862" lon="4.70556">
        <ele>576.2</ele>
        <time>2021-05-08T13:07:30Z</time>
      </trkpt>
      <trkpt lat="45.46863" lon="4.70546">
        <ele>575.4</ele>
        <time>2021-05-08T13:07:36Z</time>
      </trkpt>
      <trkpt lat="45.46864" lon="4.70535">
        <ele>574.4</ele>
        <time>2021-05-08T13:07:41Z</time>
      </trkpt>
      <trkpt lat="45.46865" lon="4.70523">
        <ele>577.6</ele>
        <time>2021-05-08T13:07:46Z</time>
      </trkpt>
      <trkpt lat="45.46866" lon="4.70513">
        <ele>577.2</ele>
        <time>2021-05-08T13:07:51Z</time>
      </trkpt>
      <trkpt lat="45.46866" lon="4.70503">
        <ele>578.4</ele>
        <time>2021-05-08T13:07:56Z</time>
      </trkpt>
      <trkpt lat="45.46869" lon="4.70492">
        <ele>578.4</ele>
        <time>2021-05-08T13:08:01Z</time>
      </trkpt>
      <trkpt lat="45.4687" lon="4.70483">
        <ele>576.8</ele>
        <time>2021-05-08T13:08:07Z</time>
      </trkpt>
      <trkpt lat="45.46867" lon="4.7047">
        <ele>576.4</ele>
        <time>2021-05-08T13:08:12Z</time>
      </trkpt>
      <trkpt lat="45.46866" lon="4.70459">
        <ele>575.4</ele>
        <time>2021-05-08T13:08:18Z</time>
      </trkpt>
      <trkpt lat="45.46866" lon="4.70451">
        <ele>576.9</ele>
        <time>2021-05-08T13:08:23Z</time>
      </trkpt>
      <trkpt lat="45.46866" lon="4.70443">
        <ele>577.2</ele>
        <time>2021-05-08T13:08:28Z</time>
      </trkpt>
      <trkpt lat="45.46867" lon="4.70432">
        <ele>580.7</ele>
        <time>2021-05-08T13:08:33Z</time>
      </trkpt>
      <trkpt lat="45.46867" lon="4.70424">
        <ele>583.2</ele>
        <time>2021-05-08T13:08:38Z</time>
      </trkpt>
      <trkpt lat="45.46865" lon="4.70411">
        <ele>580.5</ele>
        <time>2021-05-08T13:08:44Z</time>
      </trkpt>
      <trkpt lat="45.46865" lon="4.70411">
        <ele>580.6</ele>
        <time>2021-05-08T13:08:50Z</time>
      </trkpt>
      <trkpt lat="45.46866" lon="4.70403">
        <ele>581.1</ele>
        <time>2021-05-08T13:08:56Z</time>
      </trkpt>
      <trkpt lat="45.46868" lon="4.70395">
        <ele>581.5</ele>
        <time>2021-05-08T13:09:02Z</time>
      </trkpt>
      <trkpt lat="45.46871" lon="4.70387">
        <ele>582.3</ele>
        <time>2021-05-08T13:09:07Z</time>
      </trkpt>
      <trkpt lat="45.46875" lon="4.70386">
        <ele>583.3</ele>
        <time>2021-05-08T13:09:12Z</time>
      </trkpt>
      <trkpt lat="45.46879" lon="4.70384">
        <ele>584.8</ele>
        <time>2021-05-08T13:09:18Z</time>
      </trkpt>
      <trkpt lat="45.46885" lon="4.70382">
        <ele>582.4</ele>
        <time>2021-05-08T13:09:24Z</time>
      </trkpt>
      <trkpt lat="45.46894" lon="4.70377">
        <ele>581.7</ele>
        <time>2021-05-08T13:09:30Z</time>
      </trkpt>
      <trkpt lat="45.46906" lon="4.70379">
        <ele>581.5</ele>
        <time>2021-05-08T13:09:35Z</time>
      </trkpt>
      <trkpt lat="45.46913" lon="4.70388">
        <ele>582.5</ele>
        <time>2021-05-08T13:09:40Z</time>
      </trkpt>
      <trkpt lat="45.4692" lon="4.704">
        <ele>582.8</ele>
        <time>2021-05-08T13:09:46Z</time>
      </trkpt>
      <trkpt lat="45.46928" lon="4.70408">
        <ele>582.7</ele>
        <time>2021-05-08T13:09:51Z</time>
      </trkpt>
      <trkpt lat="45.46939" lon="4.70407">
        <ele>584</ele>
        <time>2021-05-08T13:09:57Z</time>
      </trkpt>
      <trkpt lat="45.46943" lon="4.70397">
        <ele>584.6</ele>
        <time>2021-05-08T13:10:02Z</time>
      </trkpt>
      <trkpt lat="45.4695" lon="4.70394">
        <ele>583.8</ele>
        <time>2021-05-08T13:10:08Z</time>
      </trkpt>
      <trkpt lat="45.4696" lon="4.70388">
        <ele>582.7</ele>
        <time>2021-05-08T13:10:13Z</time>
      </trkpt>
      <trkpt lat="45.46978" lon="4.70384">
        <ele>580</ele>
        <time>2021-05-08T13:10:18Z</time>
      </trkpt>
      <trkpt lat="45.47003" lon="4.7037">
        <ele>578.9</ele>
        <time>2021-05-08T13:10:24Z</time>
      </trkpt>
      <trkpt lat="45.47027" lon="4.7036">
        <ele>580.8</ele>
        <time>2021-05-08T13:10:29Z</time>
      </trkpt>
      <trkpt lat="45.47035" lon="4.70361">
        <ele>582.2</ele>
        <time>2021-05-08T13:10:34Z</time>
      </trkpt>
      <trkpt lat="45.47042" lon="4.70355">
        <ele>582.7</ele>
        <time>2021-05-08T13:10:40Z</time>
      </trkpt>
      <trkpt lat="45.4705" lon="4.70351">
        <ele>581.9</ele>
        <time>2021-05-08T13:10:45Z</time>
      </trkpt>
      <trkpt lat="45.47057" lon="4.70354">
        <ele>584</ele>
        <time>2021-05-08T13:10:50Z</time>
      </trkpt>
      <trkpt lat="45.47065" lon="4.70355">
        <ele>585.5</ele>
        <time>2021-05-08T13:10:55Z</time>
      </trkpt>
      <trkpt lat="45.47071" lon="4.70358">
        <ele>586.6</ele>
        <time>2021-05-08T13:11:00Z</time>
      </trkpt>
      <trkpt lat="45.47078" lon="4.70361">
        <ele>586.8</ele>
        <time>2021-05-08T13:11:05Z</time>
      </trkpt>
      <trkpt lat="45.47084" lon="4.70367">
        <ele>585.1</ele>
        <time>2021-05-08T13:11:11Z</time>
      </trkpt>
      <trkpt lat="45.47091" lon="4.70371">
        <ele>587</ele>
        <time>2021-05-08T13:11:16Z</time>
      </trkpt>
      <trkpt lat="45.47097" lon="4.70373">
        <ele>587.3</ele>
        <time>2021-05-08T13:11:22Z</time>
      </trkpt>
      <trkpt lat="45.47102" lon="4.7038">
        <ele>588.5</ele>
        <time>2021-05-08T13:11:27Z</time>
      </trkpt>
      <trkpt lat="45.47105" lon="4.70382">
        <ele>589.6</ele>
        <time>2021-05-08T13:11:32Z</time>
      </trkpt>
      <trkpt lat="45.47108" lon="4.70385">
        <ele>482.8</ele>
        <time>2021-05-08T13:11:38Z</time>
      </trkpt>
      <trkpt lat="45.47107" lon="4.70386">
        <ele>578.9</ele>
        <time>2021-05-08T13:11:43Z</time>
      </trkpt>
      <trkpt lat="45.47107" lon="4.70386">
        <ele>589.4</ele>
        <time>2021-05-08T13:11:48Z</time>
      </trkpt>
      <trkpt lat="45.47112" lon="4.70389">
        <ele>590.2</ele>
        <time>2021-05-08T13:11:54Z</time>
      </trkpt>
      <trkpt lat="45.47116" lon="4.70395">
        <ele>591.9</ele>
        <time>2021-05-08T13:11:59Z</time>
      </trkpt>
      <trkpt lat="45.47118" lon="4.70401">
        <ele>589.3</ele>
        <time>2021-05-08T13:12:04Z</time>
      </trkpt>
      <trkpt lat="45.47122" lon="4.70407">
        <ele>594.6</ele>
        <time>2021-05-08T13:12:09Z</time>
      </trkpt>
      <trkpt lat="45.47125" lon="4.70413">
        <ele>593.9</ele>
        <time>2021-05-08T13:12:15Z</time>
      </trkpt>
      <trkpt lat="45.47127" lon="4.70418">
        <ele>594.1</ele>
        <time>2021-05-08T13:12:20Z</time>
      </trkpt>
      <trkpt lat="45.47131" lon="4.70423">
        <ele>595.8</ele>
        <time>2021-05-08T13:12:25Z</time>
      </trkpt>
      <trkpt lat="45.47133" lon="4.70429">
        <ele>595.8</ele>
        <time>2021-05-08T13:12:31Z</time>
      </trkpt>
      <trkpt lat="45.47134" lon="4.70435">
        <ele>595.6</ele>
        <time>2021-05-08T13:12:36Z</time>
      </trkpt>
      <trkpt lat="45.47136" lon="4.70441">
        <ele>595.9</ele>
        <time>2021-05-08T13:12:41Z</time>
      </trkpt>
      <trkpt lat="45.47136" lon="4.70447">
        <ele>598</ele>
        <time>2021-05-08T13:12:46Z</time>
      </trkpt>
      <trkpt lat="45.47138" lon="4.70449">
        <ele>599.2</ele>
        <time>2021-05-08T13:12:51Z</time>
      </trkpt>
      <trkpt lat="45.47142" lon="4.70455">
        <ele>599.5</ele>
        <time>2021-05-08T13:12:57Z</time>
      </trkpt>
      <trkpt lat="45.47146" lon="4.70458">
        <ele>600.8</ele>
        <time>2021-05-08T13:13:02Z</time>
      </trkpt>
      <trkpt lat="45.47146" lon="4.70457">
        <ele>602</ele>
        <time>2021-05-08T13:13:08Z</time>
      </trkpt>
      <trkpt lat="45.47146" lon="4.70458">
        <ele>601.3</ele>
        <time>2021-05-08T13:13:13Z</time>
      </trkpt>
      <trkpt lat="45.47147" lon="4.70463">
        <ele>604.1</ele>
        <time>2021-05-08T13:13:18Z</time>
      </trkpt>
      <trkpt lat="45.4715" lon="4.70467">
        <ele>603.6</ele>
        <time>2021-05-08T13:13:23Z</time>
      </trkpt>
      <trkpt lat="45.4715" lon="4.70467">
        <ele>602.9</ele>
        <time>2021-05-08T13:13:29Z</time>
      </trkpt>
      <trkpt lat="45.47151" lon="4.70467">
        <ele>600.5</ele>
        <time>2021-05-08T13:13:34Z</time>
      </trkpt>
      <trkpt lat="45.47152" lon="4.70467">
        <ele>599.8</ele>
        <time>2021-05-08T13:13:40Z</time>
      </trkpt>
      <trkpt lat="45.47152" lon="4.70468">
        <ele>599.6</ele>
        <time>2021-05-08T13:13:46Z</time>
      </trkpt>
      <trkpt lat="45.47154" lon="4.70468">
        <ele>602.6</ele>
        <time>2021-05-08T13:13:52Z</time>
      </trkpt>
      <trkpt lat="45.47158" lon="4.70478">
        <ele>603.8</ele>
        <time>2021-05-08T13:13:57Z</time>
      </trkpt>
      <trkpt lat="45.47161" lon="4.70484">
        <ele>606.3</ele>
        <time>2021-05-08T13:14:03Z</time>
      </trkpt>
      <trkpt lat="45.47166" lon="4.70489">
        <ele>604.9</ele>
        <time>2021-05-08T13:14:08Z</time>
      </trkpt>
      <trkpt lat="45.47172" lon="4.70495">
        <ele>605.6</ele>
        <time>2021-05-08T13:14:14Z</time>
      </trkpt>
      <trkpt lat="45.47177" lon="4.70501">
        <ele>606.5</ele>
        <time>2021-05-08T13:14:19Z</time>
      </trkpt>
      <trkpt lat="45.47182" lon="4.7051">
        <ele>605.2</ele>
        <time>2021-05-08T13:14:24Z</time>
      </trkpt>
      <trkpt lat="45.47187" lon="4.70514">
        <ele>607.1</ele>
        <time>2021-05-08T13:14:30Z</time>
      </trkpt>
      <trkpt lat="45.47193" lon="4.70518">
        <ele>606.3</ele>
        <time>2021-05-08T13:14:35Z</time>
      </trkpt>
      <trkpt lat="45.47197" lon="4.7052">
        <ele>607</ele>
        <time>2021-05-08T13:14:41Z</time>
      </trkpt>
      <trkpt lat="45.47196" lon="4.70518">
        <ele>605.9</ele>
        <time>2021-05-08T13:14:46Z</time>
      </trkpt>
      <trkpt lat="45.47197" lon="4.70517">
        <ele>606.3</ele>
        <time>2021-05-08T13:14:51Z</time>
      </trkpt>
      <trkpt lat="45.47197" lon="4.70516">
        <ele>605.3</ele>
        <time>2021-05-08T13:14:56Z</time>
      </trkpt>
      <trkpt lat="45.47198" lon="4.70516">
        <ele>606.1</ele>
        <time>2021-05-08T13:15:02Z</time>
      </trkpt>
      <trkpt lat="45.47198" lon="4.70516">
        <ele>605</ele>
        <time>2021-05-08T13:15:07Z</time>
      </trkpt>
      <trkpt lat="45.47198" lon="4.70516">
        <ele>604.5</ele>
        <time>2021-05-08T13:15:13Z</time>
      </trkpt>
      <trkpt lat="45.47198" lon="4.70516">
        <ele>605</ele>
        <time>2021-05-08T13:15:18Z</time>
      </trkpt>
      <trkpt lat="45.47198" lon="4.70516">
        <ele>604.9</ele>
        <time>2021-05-08T13:15:24Z</time>
      </trkpt>
      <trkpt lat="45.47198" lon="4.70516">
        <ele>604.8</ele>
        <time>2021-05-08T13:15:29Z</time>
      </trkpt>
      <trkpt lat="45.47201" lon="4.7052">
        <ele>608.2</ele>
        <time>2021-05-08T13:15:34Z</time>
      </trkpt>
      <trkpt lat="45.47207" lon="4.7052">
        <ele>608.8</ele>
        <time>2021-05-08T13:15:40Z</time>
      </trkpt>
      <trkpt lat="45.47213" lon="4.7052">
        <ele>610.7</ele>
        <time>2021-05-08T13:15:46Z</time>
      </trkpt>
      <trkpt lat="45.47217" lon="4.70522">
        <ele>614.4</ele>
        <time>2021-05-08T13:15:51Z</time>
      </trkpt>
      <trkpt lat="45.47221" lon="4.70522">
        <ele>614.4</ele>
        <time>2021-05-08T13:15:57Z</time>
      </trkpt>
      <trkpt lat="45.47225" lon="4.70522">
        <ele>614.4</ele>
        <time>2021-05-08T13:16:02Z</time>
      </trkpt>
      <trkpt lat="45.47231" lon="4.70523">
        <ele>617.4</ele>
        <time>2021-05-08T13:16:07Z</time>
      </trkpt>
      <trkpt lat="45.47237" lon="4.70523">
        <ele>618.7</ele>
        <time>2021-05-08T13:16:12Z</time>
      </trkpt>
      <trkpt lat="45.47244" lon="4.70521">
        <ele>620</ele>
        <time>2021-05-08T13:16:18Z</time>
      </trkpt>
      <trkpt lat="45.47249" lon="4.70516">
        <ele>617.9</ele>
        <time>2021-05-08T13:16:23Z</time>
      </trkpt>
      <trkpt lat="45.47253" lon="4.70513">
        <ele>617.7</ele>
        <time>2021-05-08T13:16:28Z</time>
      </trkpt>
      <trkpt lat="45.47258" lon="4.70508">
        <ele>617.6</ele>
        <time>2021-05-08T13:16:34Z</time>
      </trkpt>
      <trkpt lat="45.47264" lon="4.70504">
        <ele>617.9</ele>
        <time>2021-05-08T13:16:39Z</time>
      </trkpt>
      <trkpt lat="45.47266" lon="4.70506">
        <ele>618.6</ele>
        <time>2021-05-08T13:16:45Z</time>
      </trkpt>
      <trkpt lat="45.47273" lon="4.705">
        <ele>618.8</ele>
        <time>2021-05-08T13:16:51Z</time>
      </trkpt>
      <trkpt lat="45.47281" lon="4.70498">
        <ele>620.1</ele>
        <time>2021-05-08T13:16:57Z</time>
      </trkpt>
      <trkpt lat="45.47289" lon="4.70497">
        <ele>620.8</ele>
        <time>2021-05-08T13:17:02Z</time>
      </trkpt>
      <trkpt lat="45.47298" lon="4.70493">
        <ele>618.8</ele>
        <time>2021-05-08T13:17:07Z</time>
      </trkpt>
      <trkpt lat="45.47305" lon="4.70488">
        <ele>622.4</ele>
        <time>2021-05-08T13:17:13Z</time>
      </trkpt>
      <trkpt lat="45.47311" lon="4.70481">
        <ele>625.1</ele>
        <time>2021-05-08T13:17:18Z</time>
      </trkpt>
      <trkpt lat="45.47316" lon="4.70476">
        <ele>625.3</ele>
        <time>2021-05-08T13:17:23Z</time>
      </trkpt>
      <trkpt lat="45.47321" lon="4.7047">
        <ele>626</ele>
        <time>2021-05-08T13:17:29Z</time>
      </trkpt>
      <trkpt lat="45.47323" lon="4.70459">
        <ele>625.3</ele>
        <time>2021-05-08T13:17:34Z</time>
      </trkpt>
      <trkpt lat="45.47321" lon="4.70458">
        <ele>622.9</ele>
        <time>2021-05-08T13:17:40Z</time>
      </trkpt>
      <trkpt lat="45.47321" lon="4.70459">
        <ele>624</ele>
        <time>2021-05-08T13:17:45Z</time>
      </trkpt>
      <trkpt lat="45.47322" lon="4.7046">
        <ele>624.4</ele>
        <time>2021-05-08T13:17:50Z</time>
      </trkpt>
      <trkpt lat="45.47323" lon="4.7046">
        <ele>623.8</ele>
        <time>2021-05-08T13:17:56Z</time>
      </trkpt>
      <trkpt lat="45.47323" lon="4.7046">
        <ele>623.9</ele>
        <time>2021-05-08T13:18:01Z</time>
      </trkpt>
      <trkpt lat="45.47323" lon="4.7046">
        <ele>624.3</ele>
        <time>2021-05-08T13:18:06Z</time>
      </trkpt>
      <trkpt lat="45.47324" lon="4.7046">
        <ele>625.6</ele>
        <time>2021-05-08T13:18:12Z</time>
      </trkpt>
      <trkpt lat="45.47324" lon="4.7046">
        <ele>626.3</ele>
        <time>2021-05-08T13:18:18Z</time>
      </trkpt>
      <trkpt lat="45.47324" lon="4.7046">
        <ele>626.4</ele>
        <time>2021-05-08T13:18:23Z</time>
      </trkpt>
      <trkpt lat="45.47324" lon="4.7046">
        <ele>626.6</ele>
        <time>2021-05-08T13:18:29Z</time>
      </trkpt>
      <trkpt lat="45.47324" lon="4.7046">
        <ele>626.8</ele>
        <time>2021-05-08T13:18:35Z</time>
      </trkpt>
      <trkpt lat="45.47324" lon="4.70461">
        <ele>626.6</ele>
        <time>2021-05-08T13:18:40Z</time>
      </trkpt>
      <trkpt lat="45.47324" lon="4.70461">
        <ele>626.1</ele>
        <time>2021-05-08T13:18:45Z</time>
      </trkpt>
      <trkpt lat="45.47324" lon="4.70461">
        <ele>626.7</ele>
        <time>2021-05-08T13:18:51Z</time>
      </trkpt>
      <trkpt lat="45.47324" lon="4.70461">
        <ele>626.3</ele>
        <time>2021-05-08T13:18:56Z</time>
      </trkpt>
      <trkpt lat="45.47324" lon="4.70461">
        <ele>626.5</ele>
        <time>2021-05-08T13:19:02Z</time>
      </trkpt>
      <trkpt lat="45.47324" lon="4.70461">
        <ele>626.4</ele>
        <time>2021-05-08T13:19:08Z</time>
      </trkpt>
      <trkpt lat="45.47324" lon="4.70461">
        <ele>627.2</ele>
        <time>2021-05-08T13:19:13Z</time>
      </trkpt>
      <trkpt lat="45.47324" lon="4.70461">
        <ele>626.8</ele>
        <time>2021-05-08T13:19:19Z</time>
      </trkpt>
      <trkpt lat="45.47324" lon="4.70462">
        <ele>629.5</ele>
        <time>2021-05-08T13:19:25Z</time>
      </trkpt>
      <trkpt lat="45.47331" lon="4.70455">
        <ele>628.5</ele>
        <time>2021-05-08T13:19:31Z</time>
      </trkpt>
      <trkpt lat="45.47338" lon="4.70442">
        <ele>628.8</ele>
        <time>2021-05-08T13:19:36Z</time>
      </trkpt>
      <trkpt lat="45.47347" lon="4.70415">
        <ele>627.1</ele>
        <time>2021-05-08T13:19:41Z</time>
      </trkpt>
      <trkpt lat="45.47351" lon="4.70394">
        <ele>629.3</ele>
        <time>2021-05-08T13:19:46Z</time>
      </trkpt>
      <trkpt lat="45.47356" lon="4.70378">
        <ele>632.1</ele>
        <time>2021-05-08T13:19:52Z</time>
      </trkpt>
      <trkpt lat="45.47361" lon="4.70367">
        <ele>633.5</ele>
        <time>2021-05-08T13:19:57Z</time>
      </trkpt>
      <trkpt lat="45.47367" lon="4.70353">
        <ele>640.8</ele>
        <time>2021-05-08T13:20:03Z</time>
      </trkpt>
      <trkpt lat="45.47376" lon="4.70335">
        <ele>640.6</ele>
        <time>2021-05-08T13:20:08Z</time>
      </trkpt>
      <trkpt lat="45.47387" lon="4.70316">
        <ele>640.2</ele>
        <time>2021-05-08T13:20:14Z</time>
      </trkpt>
      <trkpt lat="45.47394" lon="4.70301">
        <ele>576.2</ele>
        <time>2021-05-08T13:20:20Z</time>
      </trkpt>
      <trkpt lat="45.47404" lon="4.70286">
        <ele>525.4</ele>
        <time>2021-05-08T13:20:25Z</time>
      </trkpt>
      <trkpt lat="45.47411" lon="4.70273">
        <ele>594.8</ele>
        <time>2021-05-08T13:20:31Z</time>
      </trkpt>
      <trkpt lat="45.47423" lon="4.70253">
        <ele>627.1</ele>
        <time>2021-05-08T13:20:36Z</time>
      </trkpt>
      <trkpt lat="45.47431" lon="4.70239">
        <ele>633.7</ele>
        <time>2021-05-08T13:20:41Z</time>
      </trkpt>
      <trkpt lat="45.4744" lon="4.7022">
        <ele>528.6</ele>
        <time>2021-05-08T13:20:47Z</time>
      </trkpt>
      <trkpt lat="45.47447" lon="4.70204">
        <ele>617.6</ele>
        <time>2021-05-08T13:20:52Z</time>
      </trkpt>
      <trkpt lat="45.47453" lon="4.70188">
        <ele>634.2</ele>
        <time>2021-05-08T13:20:57Z</time>
      </trkpt>
      <trkpt lat="45.47461" lon="4.70173">
        <ele>638.3</ele>
        <time>2021-05-08T13:21:03Z</time>
      </trkpt>
      <trkpt lat="45.47469" lon="4.70159">
        <ele>585.4</ele>
        <time>2021-05-08T13:21:08Z</time>
      </trkpt>
      <trkpt lat="45.47477" lon="4.70142">
        <ele>620.4</ele>
        <time>2021-05-08T13:21:13Z</time>
      </trkpt>
      <trkpt lat="45.47484" lon="4.7013">
        <ele>581.3</ele>
        <time>2021-05-08T13:21:19Z</time>
      </trkpt>
      <trkpt lat="45.47491" lon="4.70114">
        <ele>623.5</ele>
        <time>2021-05-08T13:21:24Z</time>
      </trkpt>
      <trkpt lat="45.47496" lon="4.70104">
        <ele>633.1</ele>
        <time>2021-05-08T13:21:29Z</time>
      </trkpt>
      <trkpt lat="45.475" lon="4.70089">
        <ele>636.1</ele>
        <time>2021-05-08T13:21:34Z</time>
      </trkpt>
      <trkpt lat="45.47508" lon="4.70074">
        <ele>642.8</ele>
        <time>2021-05-08T13:21:40Z</time>
      </trkpt>
      <trkpt lat="45.47514" lon="4.70056">
        <ele>641.5</ele>
        <time>2021-05-08T13:21:45Z</time>
      </trkpt>
      <trkpt lat="45.47514" lon="4.70043">
        <ele>641</ele>
        <time>2021-05-08T13:21:50Z</time>
      </trkpt>
      <trkpt lat="45.47516" lon="4.7003">
        <ele>609.5</ele>
        <time>2021-05-08T13:21:55Z</time>
      </trkpt>
      <trkpt lat="45.47516" lon="4.70017">
        <ele>556.1</ele>
        <time>2021-05-08T13:22:01Z</time>
      </trkpt>
      <trkpt lat="45.47519" lon="4.70009">
        <ele>529.5</ele>
        <time>2021-05-08T13:22:06Z</time>
      </trkpt>
      <trkpt lat="45.47522" lon="4.69998">
        <ele>610.4</ele>
        <time>2021-05-08T13:22:12Z</time>
      </trkpt>
      <trkpt lat="45.47525" lon="4.6999">
        <ele>634.8</ele>
        <time>2021-05-08T13:22:17Z</time>
      </trkpt>
      <trkpt lat="45.47525" lon="4.69981">
        <ele>613</ele>
        <time>2021-05-08T13:22:23Z</time>
      </trkpt>
      <trkpt lat="45.47529" lon="4.69969">
        <ele>643.7</ele>
        <time>2021-05-08T13:22:29Z</time>
      </trkpt>
      <trkpt lat="45.47533" lon="4.69957">
        <ele>645.5</ele>
        <time>2021-05-08T13:22:34Z</time>
      </trkpt>
      <trkpt lat="45.47536" lon="4.69946">
        <ele>648.3</ele>
        <time>2021-05-08T13:22:39Z</time>
      </trkpt>
      <trkpt lat="45.4754" lon="4.69935">
        <ele>650.5</ele>
        <time>2021-05-08T13:22:45Z</time>
      </trkpt>
      <trkpt lat="45.47541" lon="4.69925">
        <ele>652.2</ele>
        <time>2021-05-08T13:22:50Z</time>
      </trkpt>
      <trkpt lat="45.47545" lon="4.69914">
        <ele>653.3</ele>
        <time>2021-05-08T13:22:56Z</time>
      </trkpt>
      <trkpt lat="45.47547" lon="4.69905">
        <ele>654.2</ele>
        <time>2021-05-08T13:23:01Z</time>
      </trkpt>
      <trkpt lat="45.47547" lon="4.69897">
        <ele>658.3</ele>
        <time>2021-05-08T13:23:06Z</time>
      </trkpt>
      <trkpt lat="45.47551" lon="4.69887">
        <ele>659.4</ele>
        <time>2021-05-08T13:23:12Z</time>
      </trkpt>
      <trkpt lat="45.47555" lon="4.69879">
        <ele>660.7</ele>
        <time>2021-05-08T13:23:18Z</time>
      </trkpt>
      <trkpt lat="45.47558" lon="4.69871">
        <ele>660</ele>
        <time>2021-05-08T13:23:23Z</time>
      </trkpt>
      <trkpt lat="45.4756" lon="4.69863">
        <ele>661.2</ele>
        <time>2021-05-08T13:23:28Z</time>
      </trkpt>
      <trkpt lat="45.47561" lon="4.69856">
        <ele>661.7</ele>
        <time>2021-05-08T13:23:33Z</time>
      </trkpt>
      <trkpt lat="45.47565" lon="4.69844">
        <ele>661.6</ele>
        <time>2021-05-08T13:23:39Z</time>
      </trkpt>
      <trkpt lat="45.47566" lon="4.69834">
        <ele>661.6</ele>
        <time>2021-05-08T13:23:44Z</time>
      </trkpt>
      <trkpt lat="45.4757" lon="4.69825">
        <ele>663.2</ele>
        <time>2021-05-08T13:23:49Z</time>
      </trkpt>
      <trkpt lat="45.47571" lon="4.69816">
        <ele>662.1</ele>
        <time>2021-05-08T13:23:54Z</time>
      </trkpt>
      <trkpt lat="45.47575" lon="4.69809">
        <ele>662.9</ele>
        <time>2021-05-08T13:24:00Z</time>
      </trkpt>
      <trkpt lat="45.47578" lon="4.69801">
        <ele>665.1</ele>
        <time>2021-05-08T13:24:05Z</time>
      </trkpt>
      <trkpt lat="45.47578" lon="4.69792">
        <ele>666.6</ele>
        <time>2021-05-08T13:24:11Z</time>
      </trkpt>
      <trkpt lat="45.47579" lon="4.69786">
        <ele>669.9</ele>
        <time>2021-05-08T13:24:17Z</time>
      </trkpt>
      <trkpt lat="45.47581" lon="4.69779">
        <ele>671.9</ele>
        <time>2021-05-08T13:24:22Z</time>
      </trkpt>
      <trkpt lat="45.47584" lon="4.69773">
        <ele>673.6</ele>
        <time>2021-05-08T13:24:27Z</time>
      </trkpt>
      <trkpt lat="45.47587" lon="4.69766">
        <ele>673.8</ele>
        <time>2021-05-08T13:24:32Z</time>
      </trkpt>
      <trkpt lat="45.47592" lon="4.69759">
        <ele>675.1</ele>
        <time>2021-05-08T13:24:38Z</time>
      </trkpt>
      <trkpt lat="45.47597" lon="4.69753">
        <ele>675.5</ele>
        <time>2021-05-08T13:24:43Z</time>
      </trkpt>
      <trkpt lat="45.47602" lon="4.69746">
        <ele>677.2</ele>
        <time>2021-05-08T13:24:48Z</time>
      </trkpt>
      <trkpt lat="45.47605" lon="4.69738">
        <ele>677.1</ele>
        <time>2021-05-08T13:24:54Z</time>
      </trkpt>
      <trkpt lat="45.4761" lon="4.69733">
        <ele>677.1</ele>
        <time>2021-05-08T13:24:59Z</time>
      </trkpt>
      <trkpt lat="45.47616" lon="4.69729">
        <ele>676</ele>
        <time>2021-05-08T13:25:04Z</time>
      </trkpt>
      <trkpt lat="45.47622" lon="4.69725">
        <ele>675.4</ele>
        <time>2021-05-08T13:25:09Z</time>
      </trkpt>
      <trkpt lat="45.47629" lon="4.69722">
        <ele>676.5</ele>
        <time>2021-05-08T13:25:14Z</time>
      </trkpt>
      <trkpt lat="45.47635" lon="4.69716">
        <ele>675.9</ele>
        <time>2021-05-08T13:25:20Z</time>
      </trkpt>
      <trkpt lat="45.47641" lon="4.69711">
        <ele>676.1</ele>
        <time>2021-05-08T13:25:25Z</time>
      </trkpt>
      <trkpt lat="45.47647" lon="4.69703">
        <ele>675.9</ele>
        <time>2021-05-08T13:25:31Z</time>
      </trkpt>
      <trkpt lat="45.47652" lon="4.69693">
        <ele>676</ele>
        <time>2021-05-08T13:25:36Z</time>
      </trkpt>
      <trkpt lat="45.47651" lon="4.6968">
        <ele>675.7</ele>
        <time>2021-05-08T13:25:41Z</time>
      </trkpt>
      <trkpt lat="45.47646" lon="4.69672">
        <ele>677</ele>
        <time>2021-05-08T13:25:46Z</time>
      </trkpt>
      <trkpt lat="45.47642" lon="4.69663">
        <ele>677</ele>
        <time>2021-05-08T13:25:52Z</time>
      </trkpt>
      <trkpt lat="45.47643" lon="4.69676">
        <ele>677.4</ele>
        <time>2021-05-08T13:25:57Z</time>
      </trkpt>
      <trkpt lat="45.47649" lon="4.6969">
        <ele>676.6</ele>
        <time>2021-05-08T13:26:02Z</time>
      </trkpt>
      <trkpt lat="45.47648" lon="4.69702">
        <ele>677.8</ele>
        <time>2021-05-08T13:26:08Z</time>
      </trkpt>
      <trkpt lat="45.47647" lon="4.69701">
        <ele>678</ele>
        <time>2021-05-08T13:26:13Z</time>
      </trkpt>
      <trkpt lat="45.47647" lon="4.69699">
        <ele>678.8</ele>
        <time>2021-05-08T13:26:19Z</time>
      </trkpt>
      <trkpt lat="45.47647" lon="4.69698">
        <ele>679.3</ele>
        <time>2021-05-08T13:26:24Z</time>
      </trkpt>
      <trkpt lat="45.47647" lon="4.69699">
        <ele>678.4</ele>
        <time>2021-05-08T13:26:29Z</time>
      </trkpt>
      <trkpt lat="45.47646" lon="4.697">
        <ele>679.4</ele>
        <time>2021-05-08T13:26:35Z</time>
      </trkpt>
      <trkpt lat="45.47647" lon="4.697">
        <ele>679.7</ele>
        <time>2021-05-08T13:26:41Z</time>
      </trkpt>
      <trkpt lat="45.47647" lon="4.697">
        <ele>680.8</ele>
        <time>2021-05-08T13:26:47Z</time>
      </trkpt>
      <trkpt lat="45.47647" lon="4.697">
        <ele>679.8</ele>
        <time>2021-05-08T13:26:53Z</time>
      </trkpt>
      <trkpt lat="45.47647" lon="4.697">
        <ele>681.1</ele>
        <time>2021-05-08T13:26:59Z</time>
      </trkpt>
      <trkpt lat="45.47647" lon="4.697">
        <ele>680.5</ele>
        <time>2021-05-08T13:27:05Z</time>
      </trkpt>
      <trkpt lat="45.47647" lon="4.697">
        <ele>679.9</ele>
        <time>2021-05-08T13:27:10Z</time>
      </trkpt>
      <trkpt lat="45.47647" lon="4.697">
        <ele>680</ele>
        <time>2021-05-08T13:27:16Z</time>
      </trkpt>
      <trkpt lat="45.47647" lon="4.697">
        <ele>680.4</ele>
        <time>2021-05-08T13:27:21Z</time>
      </trkpt>
      <trkpt lat="45.47647" lon="4.697">
        <ele>680.5</ele>
        <time>2021-05-08T13:27:27Z</time>
      </trkpt>
      <trkpt lat="45.47647" lon="4.697">
        <ele>680.5</ele>
        <time>2021-05-08T13:27:32Z</time>
      </trkpt>
      <trkpt lat="45.47647" lon="4.697">
        <ele>680.8</ele>
        <time>2021-05-08T13:27:38Z</time>
      </trkpt>
      <trkpt lat="45.47647" lon="4.697">
        <ele>680.6</ele>
        <time>2021-05-08T13:27:43Z</time>
      </trkpt>
      <trkpt lat="45.47647" lon="4.697">
        <ele>681.4</ele>
        <time>2021-05-08T13:27:48Z</time>
      </trkpt>
      <trkpt lat="45.47647" lon="4.697">
        <ele>680.7</ele>
        <time>2021-05-08T13:27:54Z</time>
      </trkpt>
      <trkpt lat="45.47647" lon="4.69699">
        <ele>680.5</ele>
        <time>2021-05-08T13:28:00Z</time>
      </trkpt>
      <trkpt lat="45.47646" lon="4.69699">
        <ele>680.7</ele>
        <time>2021-05-08T13:28:05Z</time>
      </trkpt>
      <trkpt lat="45.47646" lon="4.69699">
        <ele>681.3</ele>
        <time>2021-05-08T13:28:10Z</time>
      </trkpt>
      <trkpt lat="45.47646" lon="4.69699">
        <ele>681.6</ele>
        <time>2021-05-08T13:28:16Z</time>
      </trkpt>
      <trkpt lat="45.47646" lon="4.69699">
        <ele>681.3</ele>
        <time>2021-05-08T13:28:21Z</time>
      </trkpt>
      <trkpt lat="45.47645" lon="4.69703">
        <ele>681.4</ele>
        <time>2021-05-08T13:28:26Z</time>
      </trkpt>
      <trkpt lat="45.47648" lon="4.69712">
        <ele>680.4</ele>
        <time>2021-05-08T13:28:32Z</time>
      </trkpt>
      <trkpt lat="45.47658" lon="4.69717">
        <ele>680.3</ele>
        <time>2021-05-08T13:28:37Z</time>
      </trkpt>
      <trkpt lat="45.47677" lon="4.69731">
        <ele>679.4</ele>
        <time>2021-05-08T13:28:42Z</time>
      </trkpt>
      <trkpt lat="45.47689" lon="4.69743">
        <ele>678.9</ele>
        <time>2021-05-08T13:28:48Z</time>
      </trkpt>
      <trkpt lat="45.47693" lon="4.69757">
        <ele>679.1</ele>
        <time>2021-05-08T13:28:53Z</time>
      </trkpt>
      <trkpt lat="45.47698" lon="4.69768">
        <ele>679.4</ele>
        <time>2021-05-08T13:28:58Z</time>
      </trkpt>
      <trkpt lat="45.47702" lon="4.6978">
        <ele>680.6</ele>
        <time>2021-05-08T13:29:04Z</time>
      </trkpt>
      <trkpt lat="45.47706" lon="4.69786">
        <ele>679.8</ele>
        <time>2021-05-08T13:29:09Z</time>
      </trkpt>
      <trkpt lat="45.47709" lon="4.69792">
        <ele>679.8</ele>
        <time>2021-05-08T13:29:14Z</time>
      </trkpt>
      <trkpt lat="45.47712" lon="4.69799">
        <ele>679.3</ele>
        <time>2021-05-08T13:29:20Z</time>
      </trkpt>
      <trkpt lat="45.47715" lon="4.69803">
        <ele>679.7</ele>
        <time>2021-05-08T13:29:25Z</time>
      </trkpt>
      <trkpt lat="45.47718" lon="4.69809">
        <ele>679.5</ele>
        <time>2021-05-08T13:29:30Z</time>
      </trkpt>
      <trkpt lat="45.47723" lon="4.69815">
        <ele>679.6</ele>
        <time>2021-05-08T13:29:36Z</time>
      </trkpt>
      <trkpt lat="45.47725" lon="4.69821">
        <ele>681.5</ele>
        <time>2021-05-08T13:29:42Z</time>
      </trkpt>
      <trkpt lat="45.47727" lon="4.69827">
        <ele>682.8</ele>
        <time>2021-05-08T13:29:47Z</time>
      </trkpt>
      <trkpt lat="45.47728" lon="4.69836">
        <ele>684.2</ele>
        <time>2021-05-08T13:29:53Z</time>
      </trkpt>
      <trkpt lat="45.4773" lon="4.69846">
        <ele>684.9</ele>
        <time>2021-05-08T13:29:59Z</time>
      </trkpt>
      <trkpt lat="45.47731" lon="4.69854">
        <ele>686</ele>
        <time>2021-05-08T13:30:04Z</time>
      </trkpt>
      <trkpt lat="45.47734" lon="4.69861">
        <ele>685.8</ele>
        <time>2021-05-08T13:30:10Z</time>
      </trkpt>
      <trkpt lat="45.47733" lon="4.6987">
        <ele>686.1</ele>
        <time>2021-05-08T13:30:15Z</time>
      </trkpt>
      <trkpt lat="45.47733" lon="4.69879">
        <ele>687.6</ele>
        <time>2021-05-08T13:30:21Z</time>
      </trkpt>
      <trkpt lat="45.47731" lon="4.69887">
        <ele>689</ele>
        <time>2021-05-08T13:30:26Z</time>
      </trkpt>
      <trkpt lat="45.47729" lon="4.69895">
        <ele>688.9</ele>
        <time>2021-05-08T13:30:32Z</time>
      </trkpt>
      <trkpt lat="45.47728" lon="4.69901">
        <ele>691.2</ele>
        <time>2021-05-08T13:30:37Z</time>
      </trkpt>
      <trkpt lat="45.47727" lon="4.69908">
        <ele>692.5</ele>
        <time>2021-05-08T13:30:42Z</time>
      </trkpt>
      <trkpt lat="45.4773" lon="4.69915">
        <ele>692.7</ele>
        <time>2021-05-08T13:30:47Z</time>
      </trkpt>
      <trkpt lat="45.47732" lon="4.69922">
        <ele>695.5</ele>
        <time>2021-05-08T13:30:52Z</time>
      </trkpt>
      <trkpt lat="45.47733" lon="4.6993">
        <ele>694.8</ele>
        <time>2021-05-08T13:30:57Z</time>
      </trkpt>
      <trkpt lat="45.47734" lon="4.69938">
        <ele>694.8</ele>
        <time>2021-05-08T13:31:03Z</time>
      </trkpt>
      <trkpt lat="45.47735" lon="4.69944">
        <ele>694.8</ele>
        <time>2021-05-08T13:31:08Z</time>
      </trkpt>
      <trkpt lat="45.47738" lon="4.6995">
        <ele>695.7</ele>
        <time>2021-05-08T13:31:13Z</time>
      </trkpt>
      <trkpt lat="45.47742" lon="4.69956">
        <ele>694.9</ele>
        <time>2021-05-08T13:31:19Z</time>
      </trkpt>
      <trkpt lat="45.47745" lon="4.69958">
        <ele>696.8</ele>
        <time>2021-05-08T13:31:24Z</time>
      </trkpt>
      <trkpt lat="45.47749" lon="4.6996">
        <ele>697.7</ele>
        <time>2021-05-08T13:31:29Z</time>
      </trkpt>
      <trkpt lat="45.47743" lon="4.69964">
        <ele>698.3</ele>
        <time>2021-05-08T13:31:34Z</time>
      </trkpt>
      <trkpt lat="45.47736" lon="4.69946">
        <ele>695.5</ele>
        <time>2021-05-08T13:31:40Z</time>
      </trkpt>
      <trkpt lat="45.47734" lon="4.69944">
        <ele>695.6</ele>
        <time>2021-05-08T13:31:45Z</time>
      </trkpt>
      <trkpt lat="45.47734" lon="4.69945">
        <ele>696.5</ele>
        <time>2021-05-08T13:31:50Z</time>
      </trkpt>
      <trkpt lat="45.47735" lon="4.69945">
        <ele>696.4</ele>
        <time>2021-05-08T13:31:58Z</time>
      </trkpt>
      <trkpt lat="45.47739" lon="4.69944">
        <ele>696.1</ele>
        <time>2021-05-08T13:32:04Z</time>
      </trkpt>
      <trkpt lat="45.47744" lon="4.69947">
        <ele>700.4</ele>
        <time>2021-05-08T13:32:09Z</time>
      </trkpt>
      <trkpt lat="45.47748" lon="4.69949">
        <ele>699.6</ele>
        <time>2021-05-08T13:32:15Z</time>
      </trkpt>
      <trkpt lat="45.47755" lon="4.69948">
        <ele>700.9</ele>
        <time>2021-05-08T13:32:20Z</time>
      </trkpt>
      <trkpt lat="45.47761" lon="4.69947">
        <ele>701.7</ele>
        <time>2021-05-08T13:32:26Z</time>
      </trkpt>
      <trkpt lat="45.47768" lon="4.69946">
        <ele>702</ele>
        <time>2021-05-08T13:32:31Z</time>
      </trkpt>
      <trkpt lat="45.47774" lon="4.69944">
        <ele>702.9</ele>
        <time>2021-05-08T13:32:36Z</time>
      </trkpt>
      <trkpt lat="45.4778" lon="4.69945">
        <ele>703</ele>
        <time>2021-05-08T13:32:41Z</time>
      </trkpt>
      <trkpt lat="45.47785" lon="4.69951">
        <ele>704.3</ele>
        <time>2021-05-08T13:32:47Z</time>
      </trkpt>
      <trkpt lat="45.47791" lon="4.69958">
        <ele>705.1</ele>
        <time>2021-05-08T13:32:53Z</time>
      </trkpt>
      <trkpt lat="45.47796" lon="4.69964">
        <ele>706.6</ele>
        <time>2021-05-08T13:32:59Z</time>
      </trkpt>
      <trkpt lat="45.47799" lon="4.69972">
        <ele>709</ele>
        <time>2021-05-08T13:33:05Z</time>
      </trkpt>
      <trkpt lat="45.47803" lon="4.69979">
        <ele>709.5</ele>
        <time>2021-05-08T13:33:10Z</time>
      </trkpt>
      <trkpt lat="45.47806" lon="4.69984">
        <ele>710.9</ele>
        <time>2021-05-08T13:33:15Z</time>
      </trkpt>
      <trkpt lat="45.4781" lon="4.69992">
        <ele>711.1</ele>
        <time>2021-05-08T13:33:21Z</time>
      </trkpt>
      <trkpt lat="45.47815" lon="4.69997">
        <ele>712.6</ele>
        <time>2021-05-08T13:33:26Z</time>
      </trkpt>
      <trkpt lat="45.47818" lon="4.70006">
        <ele>711.7</ele>
        <time>2021-05-08T13:33:32Z</time>
      </trkpt>
      <trkpt lat="45.47822" lon="4.70013">
        <ele>712</ele>
        <time>2021-05-08T13:33:37Z</time>
      </trkpt>
      <trkpt lat="45.47827" lon="4.7002">
        <ele>710.9</ele>
        <time>2021-05-08T13:33:43Z</time>
      </trkpt>
      <trkpt lat="45.47831" lon="4.70027">
        <ele>710.9</ele>
        <time>2021-05-08T13:33:48Z</time>
      </trkpt>
      <trkpt lat="45.47835" lon="4.70032">
        <ele>711.8</ele>
        <time>2021-05-08T13:33:53Z</time>
      </trkpt>
      <trkpt lat="45.47839" lon="4.70036">
        <ele>711.9</ele>
        <time>2021-05-08T13:33:58Z</time>
      </trkpt>
      <trkpt lat="45.47844" lon="4.70042">
        <ele>712.8</ele>
        <time>2021-05-08T13:34:04Z</time>
      </trkpt>
      <trkpt lat="45.47847" lon="4.70052">
        <ele>715.2</ele>
        <time>2021-05-08T13:34:10Z</time>
      </trkpt>
      <trkpt lat="45.4785" lon="4.7006">
        <ele>715.1</ele>
        <time>2021-05-08T13:34:16Z</time>
      </trkpt>
      <trkpt lat="45.47854" lon="4.70067">
        <ele>714.7</ele>
        <time>2021-05-08T13:34:21Z</time>
      </trkpt>
      <trkpt lat="45.47859" lon="4.70075">
        <ele>715.4</ele>
        <time>2021-05-08T13:34:27Z</time>
      </trkpt>
      <trkpt lat="45.47862" lon="4.70083">
        <ele>716.7</ele>
        <time>2021-05-08T13:34:33Z</time>
      </trkpt>
      <trkpt lat="45.47865" lon="4.70091">
        <ele>715.6</ele>
        <time>2021-05-08T13:34:38Z</time>
      </trkpt>
      <trkpt lat="45.4787" lon="4.70098">
        <ele>714.6</ele>
        <time>2021-05-08T13:34:44Z</time>
      </trkpt>
      <trkpt lat="45.47875" lon="4.70106">
        <ele>715.1</ele>
        <time>2021-05-08T13:34:50Z</time>
      </trkpt>
      <trkpt lat="45.47879" lon="4.70115">
        <ele>715.6</ele>
        <time>2021-05-08T13:34:56Z</time>
      </trkpt>
      <trkpt lat="45.47882" lon="4.70119">
        <ele>716.9</ele>
        <time>2021-05-08T13:35:01Z</time>
      </trkpt>
      <trkpt lat="45.47885" lon="4.7011">
        <ele>717.9</ele>
        <time>2021-05-08T13:35:07Z</time>
      </trkpt>
      <trkpt lat="45.47877" lon="4.70104">
        <ele>716.9</ele>
        <time>2021-05-08T13:35:12Z</time>
      </trkpt>
      <trkpt lat="45.47875" lon="4.70116">
        <ele>717.6</ele>
        <time>2021-05-08T13:35:18Z</time>
      </trkpt>
      <trkpt lat="45.47881" lon="4.70125">
        <ele>717.7</ele>
        <time>2021-05-08T13:35:23Z</time>
      </trkpt>
      <trkpt lat="45.47886" lon="4.70133">
        <ele>717.5</ele>
        <time>2021-05-08T13:35:29Z</time>
      </trkpt>
      <trkpt lat="45.4789" lon="4.70144">
        <ele>716.9</ele>
        <time>2021-05-08T13:35:34Z</time>
      </trkpt>
      <trkpt lat="45.47892" lon="4.70156">
        <ele>716.5</ele>
        <time>2021-05-08T13:35:40Z</time>
      </trkpt>
      <trkpt lat="45.47892" lon="4.70168">
        <ele>717.6</ele>
        <time>2021-05-08T13:35:45Z</time>
      </trkpt>
      <trkpt lat="45.47892" lon="4.70171">
        <ele>717.4</ele>
        <time>2021-05-08T13:35:51Z</time>
      </trkpt>
      <trkpt lat="45.47891" lon="4.7017">
        <ele>717.8</ele>
        <time>2021-05-08T13:35:56Z</time>
      </trkpt>
      <trkpt lat="45.47891" lon="4.70169">
        <ele>718.3</ele>
        <time>2021-05-08T13:36:02Z</time>
      </trkpt>
      <trkpt lat="45.4789" lon="4.70167">
        <ele>718.4</ele>
        <time>2021-05-08T13:36:08Z</time>
      </trkpt>
      <trkpt lat="45.4789" lon="4.70167">
        <ele>718.6</ele>
        <time>2021-05-08T13:36:14Z</time>
      </trkpt>
      <trkpt lat="45.4789" lon="4.70177">
        <ele>719.5</ele>
        <time>2021-05-08T13:36:19Z</time>
      </trkpt>
      <trkpt lat="45.47891" lon="4.70205">
        <ele>719</ele>
        <time>2021-05-08T13:36:25Z</time>
      </trkpt>
      <trkpt lat="45.47887" lon="4.7024">
        <ele>716.2</ele>
        <time>2021-05-08T13:36:30Z</time>
      </trkpt>
      <trkpt lat="45.47885" lon="4.70292">
        <ele>713.9</ele>
        <time>2021-05-08T13:36:36Z</time>
      </trkpt>
      <trkpt lat="45.47889" lon="4.70342">
        <ele>709</ele>
        <time>2021-05-08T13:36:41Z</time>
      </trkpt>
      <trkpt lat="45.47886" lon="4.70411">
        <ele>703.6</ele>
        <time>2021-05-08T13:36:47Z</time>
      </trkpt>
      <trkpt lat="45.47878" lon="4.70476">
        <ele>703.4</ele>
        <time>2021-05-08T13:36:53Z</time>
      </trkpt>
      <trkpt lat="45.47857" lon="4.70533">
        <ele>700.9</ele>
        <time>2021-05-08T13:36:58Z</time>
      </trkpt>
      <trkpt lat="45.4785" lon="4.70592">
        <ele>700.1</ele>
        <time>2021-05-08T13:37:04Z</time>
      </trkpt>
      <trkpt lat="45.4785" lon="4.70619">
        <ele>700.6</ele>
        <time>2021-05-08T13:37:10Z</time>
      </trkpt>
      <trkpt lat="45.47849" lon="4.70641">
        <ele>701.1</ele>
        <time>2021-05-08T13:37:16Z</time>
      </trkpt>
      <trkpt lat="45.47848" lon="4.70658">
        <ele>702.4</ele>
        <time>2021-05-08T13:37:21Z</time>
      </trkpt>
      <trkpt lat="45.47848" lon="4.70672">
        <ele>702.6</ele>
        <time>2021-05-08T13:37:26Z</time>
      </trkpt>
      <trkpt lat="45.47848" lon="4.70689">
        <ele>702.7</ele>
        <time>2021-05-08T13:37:32Z</time>
      </trkpt>
      <trkpt lat="45.47848" lon="4.70707">
        <ele>702</ele>
        <time>2021-05-08T13:37:37Z</time>
      </trkpt>
      <trkpt lat="45.47849" lon="4.70721">
        <ele>701.5</ele>
        <time>2021-05-08T13:37:43Z</time>
      </trkpt>
      <trkpt lat="45.47851" lon="4.70738">
        <ele>701.5</ele>
        <time>2021-05-08T13:37:48Z</time>
      </trkpt>
      <trkpt lat="45.47853" lon="4.70757">
        <ele>701.6</ele>
        <time>2021-05-08T13:37:54Z</time>
      </trkpt>
      <trkpt lat="45.47856" lon="4.70773">
        <ele>701</ele>
        <time>2021-05-08T13:37:59Z</time>
      </trkpt>
      <trkpt lat="45.4786" lon="4.70789">
        <ele>700.8</ele>
        <time>2021-05-08T13:38:05Z</time>
      </trkpt>
      <trkpt lat="45.47865" lon="4.70805">
        <ele>579.9</ele>
        <time>2021-05-08T13:38:10Z</time>
      </trkpt>
      <trkpt lat="45.47868" lon="4.70825">
        <ele>665.7</ele>
        <time>2021-05-08T13:38:15Z</time>
      </trkpt>
      <trkpt lat="45.47872" lon="4.70842">
        <ele>578.5</ele>
        <time>2021-05-08T13:38:21Z</time>
      </trkpt>
      <trkpt lat="45.47877" lon="4.70856">
        <ele>692.2</ele>
        <time>2021-05-08T13:38:26Z</time>
      </trkpt>
      <trkpt lat="45.47883" lon="4.70874">
        <ele>679.4</ele>
        <time>2021-05-08T13:38:32Z</time>
      </trkpt>
      <trkpt lat="45.47891" lon="4.70893">
        <ele>699.4</ele>
        <time>2021-05-08T13:38:37Z</time>
      </trkpt>
      <trkpt lat="45.47896" lon="4.7091">
        <ele>705</ele>
        <time>2021-05-08T13:38:42Z</time>
      </trkpt>
      <trkpt lat="45.47903" lon="4.70929">
        <ele>704.1</ele>
        <time>2021-05-08T13:38:47Z</time>
      </trkpt>
      <trkpt lat="45.47907" lon="4.7095">
        <ele>704.5</ele>
        <time>2021-05-08T13:38:53Z</time>
      </trkpt>
      <trkpt lat="45.47912" lon="4.70968">
        <ele>703.8</ele>
        <time>2021-05-08T13:38:58Z</time>
      </trkpt>
      <trkpt lat="45.47921" lon="4.7099">
        <ele>702.1</ele>
        <time>2021-05-08T13:39:04Z</time>
      </trkpt>
      <trkpt lat="45.4793" lon="4.71013">
        <ele>701.8</ele>
        <time>2021-05-08T13:39:09Z</time>
      </trkpt>
      <trkpt lat="45.4794" lon="4.71036">
        <ele>702.8</ele>
        <time>2021-05-08T13:39:15Z</time>
      </trkpt>
      <trkpt lat="45.4795" lon="4.71054">
        <ele>703.2</ele>
        <time>2021-05-08T13:39:20Z</time>
      </trkpt>
      <trkpt lat="45.47965" lon="4.7107">
        <ele>702.7</ele>
        <time>2021-05-08T13:39:25Z</time>
      </trkpt>
      <trkpt lat="45.47973" lon="4.71083">
        <ele>704.9</ele>
        <time>2021-05-08T13:39:30Z</time>
      </trkpt>
      <trkpt lat="45.47985" lon="4.71099">
        <ele>705.6</ele>
        <time>2021-05-08T13:39:36Z</time>
      </trkpt>
      <trkpt lat="45.47996" lon="4.71112">
        <ele>706.8</ele>
        <time>2021-05-08T13:39:41Z</time>
      </trkpt>
      <trkpt lat="45.48007" lon="4.71126">
        <ele>705.9</ele>
        <time>2021-05-08T13:39:46Z</time>
      </trkpt>
      <trkpt lat="45.48023" lon="4.71143">
        <ele>708.3</ele>
        <time>2021-05-08T13:39:52Z</time>
      </trkpt>
      <trkpt lat="45.48039" lon="4.71162">
        <ele>707.7</ele>
        <time>2021-05-08T13:39:57Z</time>
      </trkpt>
      <trkpt lat="45.48055" lon="4.71177">
        <ele>706.1</ele>
        <time>2021-05-08T13:40:03Z</time>
      </trkpt>
      <trkpt lat="45.48073" lon="4.71194">
        <ele>704.6</ele>
        <time>2021-05-08T13:40:08Z</time>
      </trkpt>
      <trkpt lat="45.48091" lon="4.71209">
        <ele>702.2</ele>
        <time>2021-05-08T13:40:14Z</time>
      </trkpt>
      <trkpt lat="45.48108" lon="4.7122">
        <ele>672.2</ele>
        <time>2021-05-08T13:40:19Z</time>
      </trkpt>
      <trkpt lat="45.48122" lon="4.71232">
        <ele>695.4</ele>
        <time>2021-05-08T13:40:24Z</time>
      </trkpt>
      <trkpt lat="45.48136" lon="4.71247">
        <ele>699.9</ele>
        <time>2021-05-08T13:40:29Z</time>
      </trkpt>
      <trkpt lat="45.4815" lon="4.71263">
        <ele>681.6</ele>
        <time>2021-05-08T13:40:34Z</time>
      </trkpt>
      <trkpt lat="45.48166" lon="4.71283">
        <ele>619.2</ele>
        <time>2021-05-08T13:40:40Z</time>
      </trkpt>
      <trkpt lat="45.48183" lon="4.71302">
        <ele>686.5</ele>
        <time>2021-05-08T13:40:45Z</time>
      </trkpt>
      <trkpt lat="45.48196" lon="4.71315">
        <ele>698.2</ele>
        <time>2021-05-08T13:40:51Z</time>
      </trkpt>
      <trkpt lat="45.48214" lon="4.71333">
        <ele>701.3</ele>
        <time>2021-05-08T13:40:56Z</time>
      </trkpt>
      <trkpt lat="45.48233" lon="4.71362">
        <ele>695.8</ele>
        <time>2021-05-08T13:41:01Z</time>
      </trkpt>
      <trkpt lat="45.48255" lon="4.71392">
        <ele>695.5</ele>
        <time>2021-05-08T13:41:06Z</time>
      </trkpt>
      <trkpt lat="45.48275" lon="4.71404">
        <ele>695.2</ele>
        <time>2021-05-08T13:41:11Z</time>
      </trkpt>
      <trkpt lat="45.48289" lon="4.71412">
        <ele>695.9</ele>
        <time>2021-05-08T13:41:16Z</time>
      </trkpt>
      <trkpt lat="45.48306" lon="4.71427">
        <ele>695.8</ele>
        <time>2021-05-08T13:41:21Z</time>
      </trkpt>
      <trkpt lat="45.48329" lon="4.71437">
        <ele>697.4</ele>
        <time>2021-05-08T13:41:27Z</time>
      </trkpt>
      <trkpt lat="45.48349" lon="4.71434">
        <ele>697.4</ele>
        <time>2021-05-08T13:41:32Z</time>
      </trkpt>
      <trkpt lat="45.48368" lon="4.71425">
        <ele>699.6</ele>
        <time>2021-05-08T13:41:37Z</time>
      </trkpt>
      <trkpt lat="45.48385" lon="4.71414">
        <ele>699</ele>
        <time>2021-05-08T13:41:43Z</time>
      </trkpt>
      <trkpt lat="45.48404" lon="4.71394">
        <ele>698.3</ele>
        <time>2021-05-08T13:41:48Z</time>
      </trkpt>
      <trkpt lat="45.48421" lon="4.71375">
        <ele>698.5</ele>
        <time>2021-05-08T13:41:54Z</time>
      </trkpt>
      <trkpt lat="45.4844" lon="4.71354">
        <ele>697</ele>
        <time>2021-05-08T13:41:59Z</time>
      </trkpt>
      <trkpt lat="45.48448" lon="4.71337">
        <ele>697.2</ele>
        <time>2021-05-08T13:42:04Z</time>
      </trkpt>
      <trkpt lat="45.48452" lon="4.71323">
        <ele>697.2</ele>
        <time>2021-05-08T13:42:10Z</time>
      </trkpt>
      <trkpt lat="45.48454" lon="4.71309">
        <ele>699.4</ele>
        <time>2021-05-08T13:42:15Z</time>
      </trkpt>
      <trkpt lat="45.48458" lon="4.71301">
        <ele>703.6</ele>
        <time>2021-05-08T13:42:20Z</time>
      </trkpt>
      <trkpt lat="45.48467" lon="4.71296">
        <ele>708.6</ele>
        <time>2021-05-08T13:42:26Z</time>
      </trkpt>
      <trkpt lat="45.4847" lon="4.71292">
        <ele>707.8</ele>
        <time>2021-05-08T13:42:31Z</time>
      </trkpt>
      <trkpt lat="45.48476" lon="4.71287">
        <ele>707.5</ele>
        <time>2021-05-08T13:42:36Z</time>
      </trkpt>
      <trkpt lat="45.48485" lon="4.71282">
        <ele>707.8</ele>
        <time>2021-05-08T13:42:41Z</time>
      </trkpt>
      <trkpt lat="45.48494" lon="4.71273">
        <ele>706.1</ele>
        <time>2021-05-08T13:42:47Z</time>
      </trkpt>
      <trkpt lat="45.48502" lon="4.71266">
        <ele>705.7</ele>
        <time>2021-05-08T13:42:53Z</time>
      </trkpt>
      <trkpt lat="45.48509" lon="4.71259">
        <ele>705.4</ele>
        <time>2021-05-08T13:42:58Z</time>
      </trkpt>
      <trkpt lat="45.48516" lon="4.71252">
        <ele>707</ele>
        <time>2021-05-08T13:43:04Z</time>
      </trkpt>
      <trkpt lat="45.48524" lon="4.71246">
        <ele>707.1</ele>
        <time>2021-05-08T13:43:09Z</time>
      </trkpt>
      <trkpt lat="45.48536" lon="4.71242">
        <ele>707</ele>
        <time>2021-05-08T13:43:15Z</time>
      </trkpt>
      <trkpt lat="45.48543" lon="4.71242">
        <ele>709.4</ele>
        <time>2021-05-08T13:43:21Z</time>
      </trkpt>
      <trkpt lat="45.48555" lon="4.71241">
        <ele>710.4</ele>
        <time>2021-05-08T13:43:26Z</time>
      </trkpt>
      <trkpt lat="45.48568" lon="4.71239">
        <ele>708.1</ele>
        <time>2021-05-08T13:43:32Z</time>
      </trkpt>
      <trkpt lat="45.48581" lon="4.7124">
        <ele>707.4</ele>
        <time>2021-05-08T13:43:38Z</time>
      </trkpt>
      <trkpt lat="45.48594" lon="4.71247">
        <ele>711.9</ele>
        <time>2021-05-08T13:43:43Z</time>
      </trkpt>
      <trkpt lat="45.48607" lon="4.71252">
        <ele>590.3</ele>
        <time>2021-05-08T13:43:48Z</time>
      </trkpt>
      <trkpt lat="45.48618" lon="4.71256">
        <ele>682.4</ele>
        <time>2021-05-08T13:43:54Z</time>
      </trkpt>
      <trkpt lat="45.48634" lon="4.71259">
        <ele>698</ele>
        <time>2021-05-08T13:43:59Z</time>
      </trkpt>
      <trkpt lat="45.48649" lon="4.71262">
        <ele>709.5</ele>
        <time>2021-05-08T13:44:05Z</time>
      </trkpt>
      <trkpt lat="45.48658" lon="4.71265">
        <ele>709.8</ele>
        <time>2021-05-08T13:44:10Z</time>
      </trkpt>
      <trkpt lat="45.48668" lon="4.7127">
        <ele>712.9</ele>
        <time>2021-05-08T13:44:16Z</time>
      </trkpt>
      <trkpt lat="45.48676" lon="4.71274">
        <ele>714.3</ele>
        <time>2021-05-08T13:44:21Z</time>
      </trkpt>
      <trkpt lat="45.48685" lon="4.71279">
        <ele>714.6</ele>
        <time>2021-05-08T13:44:27Z</time>
      </trkpt>
      <trkpt lat="45.48694" lon="4.71278">
        <ele>715.6</ele>
        <time>2021-05-08T13:44:32Z</time>
      </trkpt>
      <trkpt lat="45.48705" lon="4.71282">
        <ele>716.7</ele>
        <time>2021-05-08T13:44:38Z</time>
      </trkpt>
      <trkpt lat="45.48717" lon="4.7129">
        <ele>714.8</ele>
        <time>2021-05-08T13:44:43Z</time>
      </trkpt>
      <trkpt lat="45.48738" lon="4.71303">
        <ele>684.7</ele>
        <time>2021-05-08T13:44:49Z</time>
      </trkpt>
      <trkpt lat="45.48748" lon="4.71296">
        <ele>708.4</ele>
        <time>2021-05-08T13:44:54Z</time>
      </trkpt>
      <trkpt lat="45.48753" lon="4.71289">
        <ele>710.6</ele>
        <time>2021-05-08T13:45:00Z</time>
      </trkpt>
      <trkpt lat="45.48752" lon="4.7129">
        <ele>708.1</ele>
        <time>2021-05-08T13:45:05Z</time>
      </trkpt>
      <trkpt lat="45.48752" lon="4.71292">
        <ele>707.8</ele>
        <time>2021-05-08T13:45:11Z</time>
      </trkpt>
      <trkpt lat="45.48753" lon="4.71292">
        <ele>708.5</ele>
        <time>2021-05-08T13:45:17Z</time>
      </trkpt>
      <trkpt lat="45.48754" lon="4.71292">
        <ele>708</ele>
        <time>2021-05-08T13:45:22Z</time>
      </trkpt>
      <trkpt lat="45.48755" lon="4.71291">
        <ele>707.7</ele>
        <time>2021-05-08T13:45:28Z</time>
      </trkpt>
      <trkpt lat="45.48755" lon="4.71291">
        <ele>707.9</ele>
        <time>2021-05-08T13:45:33Z</time>
      </trkpt>
      <trkpt lat="45.48754" lon="4.7129">
        <ele>707.1</ele>
        <time>2021-05-08T13:45:39Z</time>
      </trkpt>
      <trkpt lat="45.48754" lon="4.7129">
        <ele>708</ele>
        <time>2021-05-08T13:45:45Z</time>
      </trkpt>
      <trkpt lat="45.48754" lon="4.7129">
        <ele>707.7</ele>
        <time>2021-05-08T13:45:51Z</time>
      </trkpt>
      <trkpt lat="45.48754" lon="4.7129">
        <ele>707.8</ele>
        <time>2021-05-08T13:45:56Z</time>
      </trkpt>
      <trkpt lat="45.48753" lon="4.71291">
        <ele>706.1</ele>
        <time>2021-05-08T13:46:02Z</time>
      </trkpt>
      <trkpt lat="45.48754" lon="4.7129">
        <ele>705.6</ele>
        <time>2021-05-08T13:46:08Z</time>
      </trkpt>
      <trkpt lat="45.48754" lon="4.7129">
        <ele>705.5</ele>
        <time>2021-05-08T13:46:13Z</time>
      </trkpt>
      <trkpt lat="45.48754" lon="4.7129">
        <ele>705.6</ele>
        <time>2021-05-08T13:46:18Z</time>
      </trkpt>
      <trkpt lat="45.48754" lon="4.7129">
        <ele>705.7</ele>
        <time>2021-05-08T13:46:23Z</time>
      </trkpt>
      <trkpt lat="45.48754" lon="4.7129">
        <ele>705.9</ele>
        <time>2021-05-08T13:46:29Z</time>
      </trkpt>
      <trkpt lat="45.48755" lon="4.71291">
        <ele>708.2</ele>
        <time>2021-05-08T13:46:35Z</time>
      </trkpt>
      <trkpt lat="45.48755" lon="4.71291">
        <ele>706.9</ele>
        <time>2021-05-08T13:46:40Z</time>
      </trkpt>
      <trkpt lat="45.48755" lon="4.71292">
        <ele>707.2</ele>
        <time>2021-05-08T13:46:45Z</time>
      </trkpt>
      <trkpt lat="45.48755" lon="4.71292">
        <ele>681.7</ele>
        <time>2021-05-08T13:46:51Z</time>
      </trkpt>
      <trkpt lat="45.48755" lon="4.71292">
        <ele>696.4</ele>
        <time>2021-05-08T13:46:56Z</time>
      </trkpt>
      <trkpt lat="45.48755" lon="4.71292">
        <ele>700.4</ele>
        <time>2021-05-08T13:47:01Z</time>
      </trkpt>
      <trkpt lat="45.48755" lon="4.71292">
        <ele>703</ele>
        <time>2021-05-08T13:47:06Z</time>
      </trkpt>
      <trkpt lat="45.48755" lon="4.71292">
        <ele>703.6</ele>
        <time>2021-05-08T13:47:12Z</time>
      </trkpt>
      <trkpt lat="45.48755" lon="4.71292">
        <ele>702.9</ele>
        <time>2021-05-08T13:47:17Z</time>
      </trkpt>
      <trkpt lat="45.4877" lon="4.7129">
        <ele>704.6</ele>
        <time>2021-05-08T13:47:22Z</time>
      </trkpt>
      <trkpt lat="45.48801" lon="4.71284">
        <ele>703.8</ele>
        <time>2021-05-08T13:47:27Z</time>
      </trkpt>
      <trkpt lat="45.48824" lon="4.71226">
        <ele>702.2</ele>
        <time>2021-05-08T13:47:33Z</time>
      </trkpt>
      <trkpt lat="45.48853" lon="4.71176">
        <ele>701.9</ele>
        <time>2021-05-08T13:47:39Z</time>
      </trkpt>
      <trkpt lat="45.48887" lon="4.71134">
        <ele>703.2</ele>
        <time>2021-05-08T13:47:44Z</time>
      </trkpt>
      <trkpt lat="45.489" lon="4.71122">
        <ele>699.6</ele>
        <time>2021-05-08T13:47:50Z</time>
      </trkpt>
      <trkpt lat="45.48906" lon="4.7112">
        <ele>702.5</ele>
        <time>2021-05-08T13:47:56Z</time>
      </trkpt>
      <trkpt lat="45.48915" lon="4.71115">
        <ele>700.5</ele>
        <time>2021-05-08T13:48:01Z</time>
      </trkpt>
      <trkpt lat="45.48921" lon="4.71099">
        <ele>696.5</ele>
        <time>2021-05-08T13:48:06Z</time>
      </trkpt>
      <trkpt lat="45.48959" lon="4.711">
        <ele>587.4</ele>
        <time>2021-05-08T13:48:11Z</time>
      </trkpt>
      <trkpt lat="45.48993" lon="4.71108">
        <ele>646.6</ele>
        <time>2021-05-08T13:48:17Z</time>
      </trkpt>
      <trkpt lat="45.49019" lon="4.71115">
        <ele>658.7</ele>
        <time>2021-05-08T13:48:22Z</time>
      </trkpt>
      <trkpt lat="45.49033" lon="4.71117">
        <ele>660.3</ele>
        <time>2021-05-08T13:48:27Z</time>
      </trkpt>
      <trkpt lat="45.49034" lon="4.71122">
        <ele>665.9</ele>
        <time>2021-05-08T13:48:32Z</time>
      </trkpt>
      <trkpt lat="45.49031" lon="4.71124">
        <ele>664.3</ele>
        <time>2021-05-08T13:48:37Z</time>
      </trkpt>
      <trkpt lat="45.49027" lon="4.71122">
        <ele>665</ele>
        <time>2021-05-08T13:48:43Z</time>
      </trkpt>
      <trkpt lat="45.49029" lon="4.71121">
        <ele>665.8</ele>
        <time>2021-05-08T13:48:49Z</time>
      </trkpt>
      <trkpt lat="45.49028" lon="4.71122">
        <ele>669.7</ele>
        <time>2021-05-08T13:48:55Z</time>
      </trkpt>
      <trkpt lat="45.49028" lon="4.71123">
        <ele>670.2</ele>
        <time>2021-05-08T13:49:00Z</time>
      </trkpt>
      <trkpt lat="45.49028" lon="4.71123">
        <ele>671.1</ele>
        <time>2021-05-08T13:49:05Z</time>
      </trkpt>
      <trkpt lat="45.49035" lon="4.71128">
        <ele>671.1</ele>
        <time>2021-05-08T13:49:11Z</time>
      </trkpt>
      <trkpt lat="45.49074" lon="4.71164">
        <ele>556.9</ele>
        <time>2021-05-08T13:49:17Z</time>
      </trkpt>
      <trkpt lat="45.49105" lon="4.71176">
        <ele>600.5</ele>
        <time>2021-05-08T13:49:22Z</time>
      </trkpt>
      <trkpt lat="45.49138" lon="4.71175">
        <ele>626.1</ele>
        <time>2021-05-08T13:49:28Z</time>
      </trkpt>
      <trkpt lat="45.49172" lon="4.71204">
        <ele>627.9</ele>
        <time>2021-05-08T13:49:34Z</time>
      </trkpt>
      <trkpt lat="45.49209" lon="4.71244">
        <ele>629.5</ele>
        <time>2021-05-08T13:49:40Z</time>
      </trkpt>
      <trkpt lat="45.49245" lon="4.7125">
        <ele>628</ele>
        <time>2021-05-08T13:49:46Z</time>
      </trkpt>
      <trkpt lat="45.4926" lon="4.71233">
        <ele>626.3</ele>
        <time>2021-05-08T13:49:52Z</time>
      </trkpt>
      <trkpt lat="45.49276" lon="4.71222">
        <ele>627.9</ele>
        <time>2021-05-08T13:49:57Z</time>
      </trkpt>
      <trkpt lat="45.49293" lon="4.71204">
        <ele>630.2</ele>
        <time>2021-05-08T13:50:02Z</time>
      </trkpt>
      <trkpt lat="45.49306" lon="4.71191">
        <ele>628.5</ele>
        <time>2021-05-08T13:50:07Z</time>
      </trkpt>
      <trkpt lat="45.49321" lon="4.71161">
        <ele>625.3</ele>
        <time>2021-05-08T13:50:14Z</time>
      </trkpt>
      <trkpt lat="45.49337" lon="4.71147">
        <ele>628.8</ele>
        <time>2021-05-08T13:50:20Z</time>
      </trkpt>
      <trkpt lat="45.49358" lon="4.71115">
        <ele>625.4</ele>
        <time>2021-05-08T13:50:25Z</time>
      </trkpt>
      <trkpt lat="45.49378" lon="4.71068">
        <ele>593.4</ele>
        <time>2021-05-08T13:50:31Z</time>
      </trkpt>
      <trkpt lat="45.49391" lon="4.71053">
        <ele>605.6</ele>
        <time>2021-05-08T13:50:37Z</time>
      </trkpt>
      <trkpt lat="45.49405" lon="4.7105">
        <ele>610.4</ele>
        <time>2021-05-08T13:50:42Z</time>
      </trkpt>
      <trkpt lat="45.49418" lon="4.71046">
        <ele>616.3</ele>
        <time>2021-05-08T13:50:47Z</time>
      </trkpt>
      <trkpt lat="45.49427" lon="4.71043">
        <ele>614</ele>
        <time>2021-05-08T13:50:52Z</time>
      </trkpt>
      <trkpt lat="45.49438" lon="4.71036">
        <ele>583.8</ele>
        <time>2021-05-08T13:50:57Z</time>
      </trkpt>
      <trkpt lat="45.49448" lon="4.71024">
        <ele>604.3</ele>
        <time>2021-05-08T13:51:03Z</time>
      </trkpt>
      <trkpt lat="45.49458" lon="4.71002">
        <ele>613.5</ele>
        <time>2021-05-08T13:51:08Z</time>
      </trkpt>
      <trkpt lat="45.49473" lon="4.70982">
        <ele>607.7</ele>
        <time>2021-05-08T13:51:13Z</time>
      </trkpt>
      <trkpt lat="45.49493" lon="4.70946">
        <ele>584.5</ele>
        <time>2021-05-08T13:51:20Z</time>
      </trkpt>
      <trkpt lat="45.49513" lon="4.70923">
        <ele>606.1</ele>
        <time>2021-05-08T13:51:25Z</time>
      </trkpt>
      <trkpt lat="45.49548" lon="4.70896">
        <ele>612.3</ele>
        <time>2021-05-08T13:51:31Z</time>
      </trkpt>
      <trkpt lat="45.49563" lon="4.70883">
        <ele>615</ele>
        <time>2021-05-08T13:51:36Z</time>
      </trkpt>
      <trkpt lat="45.49581" lon="4.70894">
        <ele>614.3</ele>
        <time>2021-05-08T13:51:42Z</time>
      </trkpt>
      <trkpt lat="45.496" lon="4.70911">
        <ele>615.1</ele>
        <time>2021-05-08T13:51:48Z</time>
      </trkpt>
      <trkpt lat="45.4961" lon="4.70916">
        <ele>615.1</ele>
        <time>2021-05-08T13:51:53Z</time>
      </trkpt>
      <trkpt lat="45.49608" lon="4.70917">
        <ele>614.6</ele>
        <time>2021-05-08T13:51:59Z</time>
      </trkpt>
      <trkpt lat="45.49607" lon="4.70918">
        <ele>613.6</ele>
        <time>2021-05-08T13:52:04Z</time>
      </trkpt>
      <trkpt lat="45.49607" lon="4.70915">
        <ele>612</ele>
        <time>2021-05-08T13:52:09Z</time>
      </trkpt>
      <trkpt lat="45.49606" lon="4.70913">
        <ele>611.2</ele>
        <time>2021-05-08T13:52:15Z</time>
      </trkpt>
      <trkpt lat="45.49606" lon="4.70912">
        <ele>610.9</ele>
        <time>2021-05-08T13:52:21Z</time>
      </trkpt>
      <trkpt lat="45.49606" lon="4.70912">
        <ele>610.1</ele>
        <time>2021-05-08T13:52:26Z</time>
      </trkpt>
      <trkpt lat="45.49606" lon="4.70912">
        <ele>609.9</ele>
        <time>2021-05-08T13:52:31Z</time>
      </trkpt>
      <trkpt lat="45.49606" lon="4.70911">
        <ele>609.7</ele>
        <time>2021-05-08T13:52:37Z</time>
      </trkpt>
      <trkpt lat="45.49606" lon="4.70911">
        <ele>609.7</ele>
        <time>2021-05-08T13:52:42Z</time>
      </trkpt>
      <trkpt lat="45.49606" lon="4.70911">
        <ele>609.4</ele>
        <time>2021-05-08T13:52:48Z</time>
      </trkpt>
      <trkpt lat="45.49606" lon="4.70911">
        <ele>609.6</ele>
        <time>2021-05-08T13:52:53Z</time>
      </trkpt>
      <trkpt lat="45.49606" lon="4.70911">
        <ele>609.5</ele>
        <time>2021-05-08T13:52:59Z</time>
      </trkpt>
      <trkpt lat="45.49606" lon="4.70912">
        <ele>608.7</ele>
        <time>2021-05-08T13:53:05Z</time>
      </trkpt>
      <trkpt lat="45.49606" lon="4.70912">
        <ele>609</ele>
        <time>2021-05-08T13:53:11Z</time>
      </trkpt>
      <trkpt lat="45.49607" lon="4.70911">
        <ele>609.5</ele>
        <time>2021-05-08T13:53:16Z</time>
      </trkpt>
      <trkpt lat="45.49607" lon="4.70894">
        <ele>607.2</ele>
        <time>2021-05-08T13:53:21Z</time>
      </trkpt>
      <trkpt lat="45.49624" lon="4.70887">
        <ele>607.2</ele>
        <time>2021-05-08T13:53:27Z</time>
      </trkpt>
      <trkpt lat="45.49646" lon="4.70876">
        <ele>608</ele>
        <time>2021-05-08T13:53:32Z</time>
      </trkpt>
      <trkpt lat="45.49664" lon="4.70858">
        <ele>605.8</ele>
        <time>2021-05-08T13:53:37Z</time>
      </trkpt>
      <trkpt lat="45.49692" lon="4.70836">
        <ele>605.2</ele>
        <time>2021-05-08T13:53:43Z</time>
      </trkpt>
      <trkpt lat="45.49714" lon="4.70812">
        <ele>604.2</ele>
        <time>2021-05-08T13:53:48Z</time>
      </trkpt>
      <trkpt lat="45.49745" lon="4.7078">
        <ele>606.2</ele>
        <time>2021-05-08T13:53:54Z</time>
      </trkpt>
      <trkpt lat="45.49779" lon="4.70752">
        <ele>604.5</ele>
        <time>2021-05-08T13:54:00Z</time>
      </trkpt>
      <trkpt lat="45.49806" lon="4.70734">
        <ele>603</ele>
        <time>2021-05-08T13:54:05Z</time>
      </trkpt>
      <trkpt lat="45.49836" lon="4.7071">
        <ele>599.8</ele>
        <time>2021-05-08T13:54:11Z</time>
      </trkpt>
      <trkpt lat="45.4986" lon="4.70692">
        <ele>613.9</ele>
        <time>2021-05-08T13:54:16Z</time>
      </trkpt>
      <trkpt lat="45.49883" lon="4.70677">
        <ele>616.2</ele>
        <time>2021-05-08T13:54:21Z</time>
      </trkpt>
      <trkpt lat="45.49919" lon="4.70661">
        <ele>599.7</ele>
        <time>2021-05-08T13:54:27Z</time>
      </trkpt>
      <trkpt lat="45.4995" lon="4.70667">
        <ele>596.8</ele>
        <time>2021-05-08T13:54:32Z</time>
      </trkpt>
      <trkpt lat="45.49988" lon="4.70696">
        <ele>592.9</ele>
        <time>2021-05-08T13:54:37Z</time>
      </trkpt>
      <trkpt lat="45.50026" lon="4.70769">
        <ele>591</ele>
        <time>2021-05-08T13:54:43Z</time>
      </trkpt>
      <trkpt lat="45.50048" lon="4.70827">
        <ele>583.9</ele>
        <time>2021-05-08T13:54:49Z</time>
      </trkpt>
      <trkpt lat="45.50091" lon="4.7082">
        <ele>582.5</ele>
        <time>2021-05-08T13:54:54Z</time>
      </trkpt>
      <trkpt lat="45.50127" lon="4.70764">
        <ele>576.8</ele>
        <time>2021-05-08T13:55:00Z</time>
      </trkpt>
      <trkpt lat="45.50174" lon="4.70734">
        <ele>574.4</ele>
        <time>2021-05-08T13:55:05Z</time>
      </trkpt>
      <trkpt lat="45.50227" lon="4.70719">
        <ele>572.5</ele>
        <time>2021-05-08T13:55:11Z</time>
      </trkpt>
      <trkpt lat="45.50256" lon="4.70703">
        <ele>580.7</ele>
        <time>2021-05-08T13:55:17Z</time>
      </trkpt>
      <trkpt lat="45.50265" lon="4.70696">
        <ele>609.7</ele>
        <time>2021-05-08T13:55:22Z</time>
      </trkpt>
      <trkpt lat="45.50269" lon="4.70691">
        <ele>591</ele>
        <time>2021-05-08T13:55:27Z</time>
      </trkpt>
      <trkpt lat="45.50277" lon="4.70691">
        <ele>584.3</ele>
        <time>2021-05-08T13:55:33Z</time>
      </trkpt>
      <trkpt lat="45.50278" lon="4.70692">
        <ele>580.4</ele>
        <time>2021-05-08T13:55:38Z</time>
      </trkpt>
      <trkpt lat="45.50286" lon="4.70691">
        <ele>582.1</ele>
        <time>2021-05-08T13:55:44Z</time>
      </trkpt>
      <trkpt lat="45.50297" lon="4.7069">
        <ele>579.1</ele>
        <time>2021-05-08T13:55:49Z</time>
      </trkpt>
      <trkpt lat="45.50304" lon="4.70695">
        <ele>596.5</ele>
        <time>2021-05-08T13:55:55Z</time>
      </trkpt>
      <trkpt lat="45.50312" lon="4.70695">
        <ele>628.6</ele>
        <time>2021-05-08T13:56:00Z</time>
      </trkpt>
      <trkpt lat="45.50322" lon="4.70696">
        <ele>590.4</ele>
        <time>2021-05-08T13:56:06Z</time>
      </trkpt>
      <trkpt lat="45.50331" lon="4.70697">
        <ele>613.9</ele>
        <time>2021-05-08T13:56:11Z</time>
      </trkpt>
      <trkpt lat="45.50341" lon="4.70701">
        <ele>593.5</ele>
        <time>2021-05-08T13:56:16Z</time>
      </trkpt>
      <trkpt lat="45.50354" lon="4.70705">
        <ele>588.6</ele>
        <time>2021-05-08T13:56:22Z</time>
      </trkpt>
      <trkpt lat="45.50367" lon="4.7071">
        <ele>586.2</ele>
        <time>2021-05-08T13:56:27Z</time>
      </trkpt>
      <trkpt lat="45.50378" lon="4.70716">
        <ele>581.9</ele>
        <time>2021-05-08T13:56:32Z</time>
      </trkpt>
      <trkpt lat="45.50387" lon="4.70726">
        <ele>582.3</ele>
        <time>2021-05-08T13:56:38Z</time>
      </trkpt>
      <trkpt lat="45.50392" lon="4.70738">
        <ele>581.1</ele>
        <time>2021-05-08T13:56:43Z</time>
      </trkpt>
      <trkpt lat="45.50394" lon="4.70751">
        <ele>584.4</ele>
        <time>2021-05-08T13:56:48Z</time>
      </trkpt>
      <trkpt lat="45.50398" lon="4.70765">
        <ele>584.2</ele>
        <time>2021-05-08T13:56:54Z</time>
      </trkpt>
      <trkpt lat="45.50403" lon="4.7078">
        <ele>585.2</ele>
        <time>2021-05-08T13:56:59Z</time>
      </trkpt>
      <trkpt lat="45.50407" lon="4.70802">
        <ele>585</ele>
        <time>2021-05-08T13:57:05Z</time>
      </trkpt>
      <trkpt lat="45.50409" lon="4.70823">
        <ele>586.9</ele>
        <time>2021-05-08T13:57:10Z</time>
      </trkpt>
      <trkpt lat="45.50413" lon="4.70846">
        <ele>583.9</ele>
        <time>2021-05-08T13:57:15Z</time>
      </trkpt>
      <trkpt lat="45.50418" lon="4.70872">
        <ele>585</ele>
        <time>2021-05-08T13:57:21Z</time>
      </trkpt>
      <trkpt lat="45.50422" lon="4.70903">
        <ele>584.7</ele>
        <time>2021-05-08T13:57:26Z</time>
      </trkpt>
      <trkpt lat="45.50427" lon="4.7094">
        <ele>583.7</ele>
        <time>2021-05-08T13:57:32Z</time>
      </trkpt>
      <trkpt lat="45.50433" lon="4.70963">
        <ele>600.2</ele>
        <time>2021-05-08T13:57:37Z</time>
      </trkpt>
      <trkpt lat="45.50435" lon="4.70981">
        <ele>585.9</ele>
        <time>2021-05-08T13:57:43Z</time>
      </trkpt>
      <trkpt lat="45.50438" lon="4.70995">
        <ele>584</ele>
        <time>2021-05-08T13:57:49Z</time>
      </trkpt>
      <trkpt lat="45.50447" lon="4.71008">
        <ele>613.5</ele>
        <time>2021-05-08T13:57:55Z</time>
      </trkpt>
      <trkpt lat="45.50455" lon="4.71018">
        <ele>597</ele>
        <time>2021-05-08T13:58:01Z</time>
      </trkpt>
      <trkpt lat="45.50463" lon="4.71035">
        <ele>591.1</ele>
        <time>2021-05-08T13:58:06Z</time>
      </trkpt>
      <trkpt lat="45.50469" lon="4.71049">
        <ele>630</ele>
        <time>2021-05-08T13:58:12Z</time>
      </trkpt>
      <trkpt lat="45.50475" lon="4.71062">
        <ele>596</ele>
        <time>2021-05-08T13:58:17Z</time>
      </trkpt>
      <trkpt lat="45.50479" lon="4.71075">
        <ele>589.5</ele>
        <time>2021-05-08T13:58:22Z</time>
      </trkpt>
      <trkpt lat="45.50484" lon="4.71087">
        <ele>602.2</ele>
        <time>2021-05-08T13:58:28Z</time>
      </trkpt>
      <trkpt lat="45.50488" lon="4.71103">
        <ele>591.8</ele>
        <time>2021-05-08T13:58:33Z</time>
      </trkpt>
      <trkpt lat="45.50493" lon="4.71122">
        <ele>589.2</ele>
        <time>2021-05-08T13:58:39Z</time>
      </trkpt>
      <trkpt lat="45.50504" lon="4.71141">
        <ele>589.6</ele>
        <time>2021-05-08T13:58:45Z</time>
      </trkpt>
      <trkpt lat="45.50518" lon="4.71156">
        <ele>588.5</ele>
        <time>2021-05-08T13:58:51Z</time>
      </trkpt>
      <trkpt lat="45.50521" lon="4.71179">
        <ele>621.3</ele>
        <time>2021-05-08T13:58:56Z</time>
      </trkpt>
      <trkpt lat="45.50516" lon="4.71195">
        <ele>598.9</ele>
        <time>2021-05-08T13:59:02Z</time>
      </trkpt>
      <trkpt lat="45.50515" lon="4.7121">
        <ele>596.1</ele>
        <time>2021-05-08T13:59:07Z</time>
      </trkpt>
      <trkpt lat="45.50529" lon="4.71225">
        <ele>593</ele>
        <time>2021-05-08T13:59:12Z</time>
      </trkpt>
      <trkpt lat="45.50551" lon="4.71234">
        <ele>589.3</ele>
        <time>2021-05-08T13:59:17Z</time>
      </trkpt>
      <trkpt lat="45.50567" lon="4.7124">
        <ele>589.4</ele>
        <time>2021-05-08T13:59:22Z</time>
      </trkpt>
      <trkpt lat="45.50585" lon="4.71248">
        <ele>589.3</ele>
        <time>2021-05-08T13:59:28Z</time>
      </trkpt>
      <trkpt lat="45.50603" lon="4.71262">
        <ele>588.5</ele>
        <time>2021-05-08T13:59:34Z</time>
      </trkpt>
      <trkpt lat="45.50618" lon="4.71274">
        <ele>588.3</ele>
        <time>2021-05-08T13:59:39Z</time>
      </trkpt>
      <trkpt lat="45.5063" lon="4.71284">
        <ele>559.7</ele>
        <time>2021-05-08T13:59:44Z</time>
      </trkpt>
      <trkpt lat="45.50644" lon="4.71296">
        <ele>576.9</ele>
        <time>2021-05-08T13:59:49Z</time>
      </trkpt>
      <trkpt lat="45.50659" lon="4.71308">
        <ele>581.3</ele>
        <time>2021-05-08T13:59:55Z</time>
      </trkpt>
      <trkpt lat="45.50672" lon="4.71323">
        <ele>586.6</ele>
        <time>2021-05-08T14:00:00Z</time>
      </trkpt>
      <trkpt lat="45.50687" lon="4.71337">
        <ele>588.6</ele>
        <time>2021-05-08T14:00:05Z</time>
      </trkpt>
      <trkpt lat="45.50698" lon="4.71345">
        <ele>587.8</ele>
        <time>2021-05-08T14:00:10Z</time>
      </trkpt>
      <trkpt lat="45.50713" lon="4.71348">
        <ele>591.3</ele>
        <time>2021-05-08T14:00:16Z</time>
      </trkpt>
      <trkpt lat="45.50727" lon="4.71354">
        <ele>588.2</ele>
        <time>2021-05-08T14:00:21Z</time>
      </trkpt>
      <trkpt lat="45.50744" lon="4.71363">
        <ele>586.5</ele>
        <time>2021-05-08T14:00:26Z</time>
      </trkpt>
      <trkpt lat="45.5076" lon="4.71373">
        <ele>586.9</ele>
        <time>2021-05-08T14:00:32Z</time>
      </trkpt>
      <trkpt lat="45.50774" lon="4.71383">
        <ele>569</ele>
        <time>2021-05-08T14:00:38Z</time>
      </trkpt>
      <trkpt lat="45.50783" lon="4.7139">
        <ele>572.3</ele>
        <time>2021-05-08T14:00:43Z</time>
      </trkpt>
      <trkpt lat="45.50803" lon="4.71406">
        <ele>581.5</ele>
        <time>2021-05-08T14:00:48Z</time>
      </trkpt>
      <trkpt lat="45.50838" lon="4.7143">
        <ele>581.6</ele>
        <time>2021-05-08T14:00:54Z</time>
      </trkpt>
      <trkpt lat="45.50877" lon="4.71459">
        <ele>580.6</ele>
        <time>2021-05-08T14:01:00Z</time>
      </trkpt>
      <trkpt lat="45.50906" lon="4.71484">
        <ele>581</ele>
        <time>2021-05-08T14:01:05Z</time>
      </trkpt>
      <trkpt lat="45.50939" lon="4.71515">
        <ele>579.4</ele>
        <time>2021-05-08T14:01:11Z</time>
      </trkpt>
      <trkpt lat="45.50968" lon="4.71553">
        <ele>577.1</ele>
        <time>2021-05-08T14:01:17Z</time>
      </trkpt>
      <trkpt lat="45.51" lon="4.71576">
        <ele>574</ele>
        <time>2021-05-08T14:01:22Z</time>
      </trkpt>
      <trkpt lat="45.51033" lon="4.71596">
        <ele>567.8</ele>
        <time>2021-05-08T14:01:27Z</time>
      </trkpt>
      <trkpt lat="45.51049" lon="4.716">
        <ele>566.5</ele>
        <time>2021-05-08T14:01:33Z</time>
      </trkpt>
      <trkpt lat="45.51048" lon="4.71599">
        <ele>568.6</ele>
        <time>2021-05-08T14:01:38Z</time>
      </trkpt>
      <trkpt lat="45.51049" lon="4.71601">
        <ele>568.7</ele>
        <time>2021-05-08T14:01:43Z</time>
      </trkpt>
      <trkpt lat="45.51049" lon="4.71602">
        <ele>569.3</ele>
        <time>2021-05-08T14:01:49Z</time>
      </trkpt>
      <trkpt lat="45.51049" lon="4.71603">
        <ele>570.1</ele>
        <time>2021-05-08T14:01:54Z</time>
      </trkpt>
      <trkpt lat="45.51049" lon="4.71603">
        <ele>570.1</ele>
        <time>2021-05-08T14:02:00Z</time>
      </trkpt>
      <trkpt lat="45.51049" lon="4.71604">
        <ele>570.2</ele>
        <time>2021-05-08T14:02:05Z</time>
      </trkpt>
      <trkpt lat="45.51048" lon="4.71603">
        <ele>569.7</ele>
        <time>2021-05-08T14:02:11Z</time>
      </trkpt>
      <trkpt lat="45.51048" lon="4.71604">
        <ele>570.5</ele>
        <time>2021-05-08T14:02:17Z</time>
      </trkpt>
      <trkpt lat="45.51048" lon="4.71604">
        <ele>569.9</ele>
        <time>2021-05-08T14:02:22Z</time>
      </trkpt>
      <trkpt lat="45.51048" lon="4.71604">
        <ele>570.1</ele>
        <time>2021-05-08T14:02:28Z</time>
      </trkpt>
      <trkpt lat="45.51048" lon="4.71601">
        <ele>569.4</ele>
        <time>2021-05-08T14:02:33Z</time>
      </trkpt>
      <trkpt lat="45.51048" lon="4.71601">
        <ele>568.2</ele>
        <time>2021-05-08T14:02:38Z</time>
      </trkpt>
      <trkpt lat="45.51047" lon="4.71602">
        <ele>568</ele>
        <time>2021-05-08T14:02:44Z</time>
      </trkpt>
      <trkpt lat="45.51047" lon="4.71603">
        <ele>568.3</ele>
        <time>2021-05-08T14:02:49Z</time>
      </trkpt>
      <trkpt lat="45.51047" lon="4.71602">
        <ele>567.4</ele>
        <time>2021-05-08T14:02:54Z</time>
      </trkpt>
      <trkpt lat="45.51047" lon="4.71602">
        <ele>568.8</ele>
        <time>2021-05-08T14:03:00Z</time>
      </trkpt>
      <trkpt lat="45.51047" lon="4.71602">
        <ele>568.8</ele>
        <time>2021-05-08T14:03:05Z</time>
      </trkpt>
      <trkpt lat="45.51047" lon="4.71602">
        <ele>568.6</ele>
        <time>2021-05-08T14:03:11Z</time>
      </trkpt>
      <trkpt lat="45.51047" lon="4.71602">
        <ele>568.5</ele>
        <time>2021-05-08T14:03:16Z</time>
      </trkpt>
      <trkpt lat="45.51047" lon="4.71603">
        <ele>569.8</ele>
        <time>2021-05-08T14:03:21Z</time>
      </trkpt>
      <trkpt lat="45.51047" lon="4.71603">
        <ele>569.1</ele>
        <time>2021-05-08T14:03:27Z</time>
      </trkpt>
      <trkpt lat="45.51048" lon="4.71603">
        <ele>569.4</ele>
        <time>2021-05-08T14:03:33Z</time>
      </trkpt>
      <trkpt lat="45.51048" lon="4.71603">
        <ele>568.9</ele>
        <time>2021-05-08T14:03:39Z</time>
      </trkpt>
      <trkpt lat="45.51048" lon="4.71603">
        <ele>568.7</ele>
        <time>2021-05-08T14:03:45Z</time>
      </trkpt>
      <trkpt lat="45.51049" lon="4.71603">
        <ele>569.1</ele>
        <time>2021-05-08T14:03:50Z</time>
      </trkpt>
      <trkpt lat="45.51049" lon="4.71603">
        <ele>569</ele>
        <time>2021-05-08T14:03:56Z</time>
      </trkpt>
      <trkpt lat="45.51049" lon="4.71603">
        <ele>569.4</ele>
        <time>2021-05-08T14:04:02Z</time>
      </trkpt>
      <trkpt lat="45.51049" lon="4.71602">
        <ele>569.1</ele>
        <time>2021-05-08T14:04:07Z</time>
      </trkpt>
      <trkpt lat="45.51049" lon="4.71603">
        <ele>569.5</ele>
        <time>2021-05-08T14:04:12Z</time>
      </trkpt>
      <trkpt lat="45.51049" lon="4.71603">
        <ele>569.2</ele>
        <time>2021-05-08T14:04:18Z</time>
      </trkpt>
      <trkpt lat="45.51049" lon="4.71603">
        <ele>569.1</ele>
        <time>2021-05-08T14:04:24Z</time>
      </trkpt>
      <trkpt lat="45.51049" lon="4.71603">
        <ele>569.6</ele>
        <time>2021-05-08T14:04:29Z</time>
      </trkpt>
      <trkpt lat="45.51049" lon="4.71603">
        <ele>569.5</ele>
        <time>2021-05-08T14:04:35Z</time>
      </trkpt>
      <trkpt lat="45.51049" lon="4.71603">
        <ele>569.5</ele>
        <time>2021-05-08T14:04:41Z</time>
      </trkpt>
      <trkpt lat="45.51049" lon="4.71603">
        <ele>569.5</ele>
        <time>2021-05-08T14:04:47Z</time>
      </trkpt>
      <trkpt lat="45.51049" lon="4.71603">
        <ele>569.6</ele>
        <time>2021-05-08T14:04:52Z</time>
      </trkpt>
      <trkpt lat="45.51049" lon="4.71603">
        <ele>569.4</ele>
        <time>2021-05-08T14:04:57Z</time>
      </trkpt>
      <trkpt lat="45.51049" lon="4.71603">
        <ele>569.6</ele>
        <time>2021-05-08T14:05:03Z</time>
      </trkpt>
      <trkpt lat="45.51049" lon="4.71603">
        <ele>569.5</ele>
        <time>2021-05-08T14:05:09Z</time>
      </trkpt>
      <trkpt lat="45.51049" lon="4.71603">
        <ele>569.4</ele>
        <time>2021-05-08T14:05:15Z</time>
      </trkpt>
      <trkpt lat="45.51049" lon="4.71602">
        <ele>569.3</ele>
        <time>2021-05-08T14:05:21Z</time>
      </trkpt>
      <trkpt lat="45.51049" lon="4.71602">
        <ele>569.4</ele>
        <time>2021-05-08T14:05:27Z</time>
      </trkpt>
      <trkpt lat="45.51049" lon="4.71602">
        <ele>568.3</ele>
        <time>2021-05-08T14:05:33Z</time>
      </trkpt>
      <trkpt lat="45.51049" lon="4.71602">
        <ele>568.6</ele>
        <time>2021-05-08T14:05:39Z</time>
      </trkpt>
      <trkpt lat="45.51049" lon="4.71602">
        <ele>568.7</ele>
        <time>2021-05-08T14:05:45Z</time>
      </trkpt>
      <trkpt lat="45.51049" lon="4.71602">
        <ele>569</ele>
        <time>2021-05-08T14:05:51Z</time>
      </trkpt>
      <trkpt lat="45.51049" lon="4.71601">
        <ele>568.4</ele>
        <time>2021-05-08T14:05:57Z</time>
      </trkpt>
      <trkpt lat="45.51049" lon="4.71602">
        <ele>567.9</ele>
        <time>2021-05-08T14:06:03Z</time>
      </trkpt>
      <trkpt lat="45.51049" lon="4.71602">
        <ele>568.5</ele>
        <time>2021-05-08T14:06:09Z</time>
      </trkpt>
      <trkpt lat="45.51049" lon="4.71602">
        <ele>568.5</ele>
        <time>2021-05-08T14:06:15Z</time>
      </trkpt>
      <trkpt lat="45.51049" lon="4.71602">
        <ele>568.5</ele>
        <time>2021-05-08T14:06:20Z</time>
      </trkpt>
      <trkpt lat="45.51049" lon="4.71602">
        <ele>569.1</ele>
        <time>2021-05-08T14:06:26Z</time>
      </trkpt>
      <trkpt lat="45.51049" lon="4.71602">
        <ele>569</ele>
        <time>2021-05-08T14:06:31Z</time>
      </trkpt>
      <trkpt lat="45.5105" lon="4.71603">
        <ele>569.3</ele>
        <time>2021-05-08T14:06:37Z</time>
      </trkpt>
      <trkpt lat="45.51051" lon="4.71604">
        <ele>569.6</ele>
        <time>2021-05-08T14:06:44Z</time>
      </trkpt>
      <trkpt lat="45.51052" lon="4.71604">
        <ele>569.3</ele>
        <time>2021-05-08T14:06:49Z</time>
      </trkpt>
      <trkpt lat="45.51052" lon="4.71605">
        <ele>569.3</ele>
        <time>2021-05-08T14:06:55Z</time>
      </trkpt>
      <trkpt lat="45.51052" lon="4.71605">
        <ele>568.3</ele>
        <time>2021-05-08T14:07:00Z</time>
      </trkpt>
      <trkpt lat="45.51051" lon="4.71605">
        <ele>568.4</ele>
        <time>2021-05-08T14:07:06Z</time>
      </trkpt>
      <trkpt lat="45.51051" lon="4.71605">
        <ele>568</ele>
        <time>2021-05-08T14:07:12Z</time>
      </trkpt>
      <trkpt lat="45.51051" lon="4.71604">
        <ele>568.1</ele>
        <time>2021-05-08T14:07:17Z</time>
      </trkpt>
      <trkpt lat="45.5105" lon="4.71604">
        <ele>567.8</ele>
        <time>2021-05-08T14:07:23Z</time>
      </trkpt>
      <trkpt lat="45.5105" lon="4.71604">
        <ele>568.5</ele>
        <time>2021-05-08T14:07:29Z</time>
      </trkpt>
      <trkpt lat="45.51051" lon="4.71605">
        <ele>568.1</ele>
        <time>2021-05-08T14:07:35Z</time>
      </trkpt>
      <trkpt lat="45.5105" lon="4.71605">
        <ele>568.6</ele>
        <time>2021-05-08T14:07:41Z</time>
      </trkpt>
      <trkpt lat="45.51049" lon="4.71605">
        <ele>567.9</ele>
        <time>2021-05-08T14:07:47Z</time>
      </trkpt>
      <trkpt lat="45.5105" lon="4.71606">
        <ele>569.6</ele>
        <time>2021-05-08T14:07:53Z</time>
      </trkpt>
      <trkpt lat="45.5105" lon="4.71606">
        <ele>571.8</ele>
        <time>2021-05-08T14:07:59Z</time>
      </trkpt>
      <trkpt lat="45.51051" lon="4.71606">
        <ele>570.3</ele>
        <time>2021-05-08T14:08:05Z</time>
      </trkpt>
      <trkpt lat="45.51053" lon="4.71605">
        <ele>570.3</ele>
        <time>2021-05-08T14:08:10Z</time>
      </trkpt>
      <trkpt lat="45.51054" lon="4.71604">
        <ele>568.8</ele>
        <time>2021-05-08T14:08:16Z</time>
      </trkpt>
      <trkpt lat="45.51054" lon="4.71604">
        <ele>568.1</ele>
        <time>2021-05-08T14:08:21Z</time>
      </trkpt>
      <trkpt lat="45.51053" lon="4.71603">
        <ele>568.2</ele>
        <time>2021-05-08T14:08:27Z</time>
      </trkpt>
      <trkpt lat="45.51053" lon="4.71604">
        <ele>568.6</ele>
        <time>2021-05-08T14:08:32Z</time>
      </trkpt>
      <trkpt lat="45.51053" lon="4.71604">
        <ele>568.1</ele>
        <time>2021-05-08T14:08:38Z</time>
      </trkpt>
      <trkpt lat="45.51056" lon="4.71606">
        <ele>567.4</ele>
        <time>2021-05-08T14:08:43Z</time>
      </trkpt>
      <trkpt lat="45.51091" lon="4.71635">
        <ele>567.5</ele>
        <time>2021-05-08T14:08:49Z</time>
      </trkpt>
      <trkpt lat="45.51118" lon="4.71663">
        <ele>561.4</ele>
        <time>2021-05-08T14:08:54Z</time>
      </trkpt>
      <trkpt lat="45.51143" lon="4.71698">
        <ele>553.8</ele>
        <time>2021-05-08T14:09:00Z</time>
      </trkpt>
      <trkpt lat="45.51166" lon="4.71723">
        <ele>550.2</ele>
        <time>2021-05-08T14:09:05Z</time>
      </trkpt>
      <trkpt lat="45.51184" lon="4.71746">
        <ele>543.1</ele>
        <time>2021-05-08T14:09:10Z</time>
      </trkpt>
      <trkpt lat="45.51203" lon="4.71782">
        <ele>535.1</ele>
        <time>2021-05-08T14:09:16Z</time>
      </trkpt>
      <trkpt lat="45.51208" lon="4.71798">
        <ele>533</ele>
        <time>2021-05-08T14:09:21Z</time>
      </trkpt>
      <trkpt lat="45.51209" lon="4.71799">
        <ele>531.8</ele>
        <time>2021-05-08T14:09:27Z</time>
      </trkpt>
      <trkpt lat="45.51209" lon="4.71799">
        <ele>530.7</ele>
        <time>2021-05-08T14:09:32Z</time>
      </trkpt>
      <trkpt lat="45.5121" lon="4.718">
        <ele>532</ele>
        <time>2021-05-08T14:09:38Z</time>
      </trkpt>
      <trkpt lat="45.51209" lon="4.71802">
        <ele>532.3</ele>
        <time>2021-05-08T14:09:43Z</time>
      </trkpt>
      <trkpt lat="45.51214" lon="4.71804">
        <ele>529.1</ele>
        <time>2021-05-08T14:09:48Z</time>
      </trkpt>
      <trkpt lat="45.51242" lon="4.71827">
        <ele>523.9</ele>
        <time>2021-05-08T14:09:53Z</time>
      </trkpt>
      <trkpt lat="45.51281" lon="4.71853">
        <ele>518.6</ele>
        <time>2021-05-08T14:09:59Z</time>
      </trkpt>
      <trkpt lat="45.51317" lon="4.71862">
        <ele>513.6</ele>
        <time>2021-05-08T14:10:04Z</time>
      </trkpt>
      <trkpt lat="45.5138" lon="4.71842">
        <ele>508.7</ele>
        <time>2021-05-08T14:10:10Z</time>
      </trkpt>
      <trkpt lat="45.51428" lon="4.71807">
        <ele>506.4</ele>
        <time>2021-05-08T14:10:16Z</time>
      </trkpt>
      <trkpt lat="45.51458" lon="4.71845">
        <ele>500.4</ele>
        <time>2021-05-08T14:10:22Z</time>
      </trkpt>
      <trkpt lat="45.51503" lon="4.71892">
        <ele>491.9</ele>
        <time>2021-05-08T14:10:27Z</time>
      </trkpt>
      <trkpt lat="45.51557" lon="4.71915">
        <ele>480.9</ele>
        <time>2021-05-08T14:10:32Z</time>
      </trkpt>
      <trkpt lat="45.51599" lon="4.71986">
        <ele>472.9</ele>
        <time>2021-05-08T14:10:38Z</time>
      </trkpt>
      <trkpt lat="45.5161" lon="4.72023">
        <ele>463.4</ele>
        <time>2021-05-08T14:10:43Z</time>
      </trkpt>
      <trkpt lat="45.51596" lon="4.72053">
        <ele>458.9</ele>
        <time>2021-05-08T14:10:49Z</time>
      </trkpt>
      <trkpt lat="45.51579" lon="4.72083">
        <ele>459.5</ele>
        <time>2021-05-08T14:10:55Z</time>
      </trkpt>
      <trkpt lat="45.51562" lon="4.72115">
        <ele>457.3</ele>
        <time>2021-05-08T14:11:01Z</time>
      </trkpt>
      <trkpt lat="45.51544" lon="4.72135">
        <ele>458.2</ele>
        <time>2021-05-08T14:11:06Z</time>
      </trkpt>
      <trkpt lat="45.51538" lon="4.7217">
        <ele>451.3</ele>
        <time>2021-05-08T14:11:12Z</time>
      </trkpt>
      <trkpt lat="45.51537" lon="4.72181">
        <ele>486.9</ele>
        <time>2021-05-08T14:11:18Z</time>
      </trkpt>
      <trkpt lat="45.51551" lon="4.722">
        <ele>459.5</ele>
        <time>2021-05-08T14:11:23Z</time>
      </trkpt>
      <trkpt lat="45.5155" lon="4.72233">
        <ele>455.5</ele>
        <time>2021-05-08T14:11:29Z</time>
      </trkpt>
      <trkpt lat="45.51545" lon="4.72247">
        <ele>454.2</ele>
        <time>2021-05-08T14:11:34Z</time>
      </trkpt>
      <trkpt lat="45.51546" lon="4.72247">
        <ele>455.8</ele>
        <time>2021-05-08T14:11:40Z</time>
      </trkpt>
      <trkpt lat="45.51547" lon="4.72248">
        <ele>457.8</ele>
        <time>2021-05-08T14:11:45Z</time>
      </trkpt>
      <trkpt lat="45.51551" lon="4.72248">
        <ele>460.2</ele>
        <time>2021-05-08T14:11:51Z</time>
      </trkpt>
      <trkpt lat="45.51555" lon="4.72253">
        <ele>456.6</ele>
        <time>2021-05-08T14:11:56Z</time>
      </trkpt>
      <trkpt lat="45.5156" lon="4.72258">
        <ele>457.3</ele>
        <time>2021-05-08T14:12:01Z</time>
      </trkpt>
      <trkpt lat="45.51566" lon="4.72259">
        <ele>459.6</ele>
        <time>2021-05-08T14:12:06Z</time>
      </trkpt>
      <trkpt lat="45.51567" lon="4.72261">
        <ele>458</ele>
        <time>2021-05-08T14:12:12Z</time>
      </trkpt>
      <trkpt lat="45.51566" lon="4.72263">
        <ele>457.5</ele>
        <time>2021-05-08T14:12:18Z</time>
      </trkpt>
      <trkpt lat="45.51566" lon="4.72263">
        <ele>459.8</ele>
        <time>2021-05-08T14:12:23Z</time>
      </trkpt>
      <trkpt lat="45.51567" lon="4.72263">
        <ele>458.9</ele>
        <time>2021-05-08T14:12:28Z</time>
      </trkpt>
      <trkpt lat="45.51568" lon="4.72265">
        <ele>458.9</ele>
        <time>2021-05-08T14:12:34Z</time>
      </trkpt>
      <trkpt lat="45.51569" lon="4.72266">
        <ele>459.2</ele>
        <time>2021-05-08T14:12:39Z</time>
      </trkpt>
      <trkpt lat="45.51569" lon="4.72265">
        <ele>460</ele>
        <time>2021-05-08T14:12:44Z</time>
      </trkpt>
      <trkpt lat="45.51566" lon="4.72257">
        <ele>459.6</ele>
        <time>2021-05-08T14:12:50Z</time>
      </trkpt>
      <trkpt lat="45.51566" lon="4.72258">
        <ele>460.2</ele>
        <time>2021-05-08T14:12:55Z</time>
      </trkpt>
      <trkpt lat="45.51566" lon="4.72258">
        <ele>460.3</ele>
        <time>2021-05-08T14:13:01Z</time>
      </trkpt>
      <trkpt lat="45.51566" lon="4.72258">
        <ele>459.6</ele>
        <time>2021-05-08T14:13:07Z</time>
      </trkpt>
      <trkpt lat="45.51566" lon="4.72259">
        <ele>460.2</ele>
        <time>2021-05-08T14:13:13Z</time>
      </trkpt>
      <trkpt lat="45.51567" lon="4.72259">
        <ele>461.2</ele>
        <time>2021-05-08T14:13:19Z</time>
      </trkpt>
      <trkpt lat="45.51567" lon="4.72259">
        <ele>459.4</ele>
        <time>2021-05-08T14:13:24Z</time>
      </trkpt>
      <trkpt lat="45.51567" lon="4.7226">
        <ele>460</ele>
        <time>2021-05-08T14:13:30Z</time>
      </trkpt>
      <trkpt lat="45.51567" lon="4.7226">
        <ele>458.8</ele>
        <time>2021-05-08T14:13:35Z</time>
      </trkpt>
      <trkpt lat="45.51567" lon="4.7226">
        <ele>459.6</ele>
        <time>2021-05-08T14:13:41Z</time>
      </trkpt>
      <trkpt lat="45.51567" lon="4.72261">
        <ele>459.9</ele>
        <time>2021-05-08T14:13:46Z</time>
      </trkpt>
      <trkpt lat="45.51567" lon="4.72261">
        <ele>460.8</ele>
        <time>2021-05-08T14:13:51Z</time>
      </trkpt>
      <trkpt lat="45.51567" lon="4.72262">
        <ele>459.7</ele>
        <time>2021-05-08T14:13:56Z</time>
      </trkpt>
      <trkpt lat="45.51567" lon="4.72262">
        <ele>455.3</ele>
        <time>2021-05-08T14:14:02Z</time>
      </trkpt>
      <trkpt lat="45.51566" lon="4.72261">
        <ele>452.2</ele>
        <time>2021-05-08T14:14:08Z</time>
      </trkpt>
      <trkpt lat="45.51562" lon="4.72259">
        <ele>523.8</ele>
        <time>2021-05-08T14:14:14Z</time>
      </trkpt>
      <trkpt lat="45.51563" lon="4.72264">
        <ele>478.4</ele>
        <time>2021-05-08T14:14:19Z</time>
      </trkpt>
      <trkpt lat="45.51563" lon="4.72265">
        <ele>461.8</ele>
        <time>2021-05-08T14:14:25Z</time>
      </trkpt>
    </trkseg>
  </trk>
</gpx>